<?xml version='1.0' encoding='UTF-8'?><gpx version="1.1" creator="JPX - https://github.com/jenetics/jpx" xmlns="http://www.topografix.com/GPX/1/1"><trk><trkseg><trkpt lat="44.847101993761655" lon="9.49184088694672"><ele>503.0</ele><time>2026-04-18T16:26:34.999Z</time></trkpt><trkpt lat="44.84713477869075" lon="9.491702491414733"><ele>503.00000000000006</ele><time>2026-04-18T16:26:36.999Z</time></trkpt><trkpt lat="44.84715377196279" lon="9.49161582993891"><ele>503.0</ele><time>2026-04-18T16:26:37.999Z</time></trkpt><trkpt lat="44.84717111426036" lon="9.491523193094645"><ele>503.0</ele><time>2026-04-18T16:26:38.999Z</time></trkpt><trkpt lat="44.8471881610214" lon="9.491430330887317"><ele>503.00000000000006</ele><time>2026-04-18T16:26:39.999Z</time></trkpt><trkpt lat="44.847206850889926" lon="9.491336685175153"><ele>503.0</ele><time>2026-04-18T16:26:40.999Z</time></trkpt><trkpt lat="44.84723006077302" lon="9.491248898576421"><ele>503.0</ele><time>2026-04-18T16:26:41.999Z</time></trkpt><trkpt lat="44.84726016943516" lon="9.491163756625419"><ele>504.3333333333333</ele><time>2026-04-18T16:26:42.999Z</time></trkpt><trkpt lat="44.847300649200974" lon="9.491086799491153"><ele>505.66666666666663</ele><time>2026-04-18T16:26:43.999Z</time></trkpt><trkpt lat="44.84735298352217" lon="9.49101980217403"><ele>507.0</ele><time>2026-04-18T16:26:44.999Z</time></trkpt><trkpt lat="44.84741339388804" lon="9.490954965706049"><ele>508.33333333333337</ele><time>2026-04-18T16:26:45.999Z</time></trkpt><trkpt lat="44.84747227059773" lon="9.490894653812767"><ele>509.6666666666667</ele><time>2026-04-18T16:26:46.999Z</time></trkpt><trkpt lat="44.84752609193506" lon="9.490843452365153"><ele>511.0</ele><time>2026-04-18T16:26:47.999Z</time></trkpt><trkpt lat="44.847610342459355" lon="9.490763303032683"><ele>511.33333333333337</ele><time>2026-04-18T16:26:49.999Z</time></trkpt><trkpt lat="44.84767545167153" lon="9.490695143492845"><ele>511.6666666666667</ele><time>2026-04-18T16:26:51.999Z</time></trkpt><trkpt lat="44.84772179137412" lon="9.490606756743675"><ele>512.0</ele><time>2026-04-18T16:26:53.999Z</time></trkpt><trkpt lat="44.8476710585264" lon="9.490445084414091"><ele>512.3333333333334</ele><time>2026-04-18T16:26:56.999Z</time></trkpt><trkpt lat="44.84761182382633" lon="9.490351059140771"><ele>512.6666666666666</ele><time>2026-04-18T16:26:58.999Z</time></trkpt><trkpt lat="44.8475824026248" lon="9.490262466216215"><ele>513.0</ele><time>2026-04-18T16:27:00.999Z</time></trkpt><trkpt lat="44.847564346023745" lon="9.49014587502511"><ele>513.0</ele><time>2026-04-18T16:27:03.999Z</time></trkpt><trkpt lat="44.847581284805706" lon="9.490051002424947"><ele>513.0</ele><time>2026-04-18T16:27:05.999Z</time></trkpt><trkpt lat="44.847624253840074" lon="9.489897491116034"><ele>513.0</ele><time>2026-04-18T16:27:07.999Z</time></trkpt><trkpt lat="44.84764750871792" lon="9.489756071140112"><ele>513.0</ele><time>2026-04-18T16:27:09.999Z</time></trkpt><trkpt lat="44.84766066419072" lon="9.489668183357084"><ele>513.0</ele><time>2026-04-18T16:27:10.999Z</time></trkpt><trkpt lat="44.84767713640686" lon="9.489521477518963"><ele>509.0</ele><time>2026-04-18T16:27:12.999Z</time></trkpt><trkpt lat="44.84769118390261" lon="9.489393500151897"><ele>505.0</ele><time>2026-04-18T16:27:14.999Z</time></trkpt><trkpt lat="44.84770713945807" lon="9.48925333897045"><ele>501.0</ele><time>2026-04-18T16:27:16.999Z</time></trkpt><trkpt lat="44.84773139039033" lon="9.489112648029412"><ele>497.0</ele><time>2026-04-18T16:27:18.999Z</time></trkpt><trkpt lat="44.84776086651804" lon="9.489030849084468"><ele>493.0</ele><time>2026-04-18T16:27:20.999Z</time></trkpt><trkpt lat="44.84779433282779" lon="9.488917419413665"><ele>489.0</ele><time>2026-04-18T16:28:09.999Z</time></trkpt><trkpt lat="44.84787270517748" lon="9.488834071002486"><ele>490.6</ele><time>2026-04-18T16:28:11.999Z</time></trkpt><trkpt lat="44.84792628636048" lon="9.488711359876305"><ele>492.2</ele><time>2026-04-18T16:28:13.999Z</time></trkpt><trkpt lat="44.84796227711643" lon="9.488584161931648"><ele>493.80000000000007</ele><time>2026-04-18T16:28:15.999Z</time></trkpt><trkpt lat="44.848028062312316" lon="9.48848797573625"><ele>495.40000000000003</ele><time>2026-04-18T16:28:17.999Z</time></trkpt><trkpt lat="44.84808252120139" lon="9.488413102557079"><ele>497.0</ele><time>2026-04-18T16:28:19.999Z</time></trkpt><trkpt lat="44.84815400692523" lon="9.488360096358425"><ele>496.99999999999994</ele><time>2026-04-18T16:28:21.999Z</time></trkpt><trkpt lat="44.848229912615565" lon="9.488362454059667"><ele>497.0</ele><time>2026-04-18T16:28:23.999Z</time></trkpt><trkpt lat="44.84829781017122" lon="9.488397940962512"><ele>497.0</ele><time>2026-04-18T16:28:25.999Z</time></trkpt><trkpt lat="44.84838100193305" lon="9.48842705831689"><ele>497.0</ele><time>2026-04-18T16:28:27.999Z</time></trkpt><trkpt lat="44.8484369080733" lon="9.488488417818324"><ele>496.99999999999994</ele><time>2026-04-18T16:28:29.999Z</time></trkpt><trkpt lat="44.848512866138805" lon="9.48853656940167"><ele>497.0</ele><time>2026-04-18T16:28:31.999Z</time></trkpt><trkpt lat="44.84857852597931" lon="9.488619473430681"><ele>495.99999999999994</ele><time>2026-04-18T16:28:33.999Z</time></trkpt><trkpt lat="44.84864647025033" lon="9.488694603973975"><ele>495.0</ele><time>2026-04-18T16:28:35.999Z</time></trkpt><trkpt lat="44.84872325607934" lon="9.488757507750629"><ele>494.0</ele><time>2026-04-18T16:28:37.999Z</time></trkpt><trkpt lat="44.84879233052689" lon="9.488825351520061"><ele>493.0</ele><time>2026-04-18T16:28:39.999Z</time></trkpt><trkpt lat="44.84886195232941" lon="9.4888875544898"><ele>491.99999999999994</ele><time>2026-04-18T16:28:41.999Z</time></trkpt><trkpt lat="44.84892490081028" lon="9.48893014236878"><ele>491.0</ele><time>2026-04-18T16:28:43.999Z</time></trkpt><trkpt lat="44.84898227385101" lon="9.48897101966095"><ele>489.66666666666663</ele><time>2026-04-18T16:28:45.999Z</time></trkpt><trkpt lat="44.84904112181353" lon="9.489003924787513"><ele>488.3333333333333</ele><time>2026-04-18T16:28:47.999Z</time></trkpt><trkpt lat="44.84911980179144" lon="9.48904581470974"><ele>487.0</ele><time>2026-04-18T16:30:19Z</time></trkpt><trkpt lat="44.84919490031943" lon="9.489090932440842"><ele>485.66666666666663</ele><time>2026-04-18T16:30:21Z</time></trkpt><trkpt lat="44.84927800569321" lon="9.489130109701605"><ele>484.3333333333333</ele><time>2026-04-18T16:30:23Z</time></trkpt><trkpt lat="44.84934944380422" lon="9.48919885827386"><ele>483.0</ele><time>2026-04-18T16:30:25Z</time></trkpt><trkpt lat="44.849408998892756" lon="9.489246343448599"><ele>483.0</ele><time>2026-04-18T16:30:27Z</time></trkpt><trkpt lat="44.84946629451811" lon="9.489300152536543"><ele>483.0</ele><time>2026-04-18T16:30:30Z</time></trkpt><trkpt lat="44.84951704841379" lon="9.489360015212785"><ele>483.0</ele><time>2026-04-18T16:30:39Z</time></trkpt><trkpt lat="44.849557618924045" lon="9.4894511374348"><ele>483.0</ele><time>2026-04-18T16:30:43Z</time></trkpt><trkpt lat="44.849546751132046" lon="9.489567014375698"><ele>483.0</ele><time>2026-04-18T16:30:47Z</time></trkpt><trkpt lat="44.849407838089455" lon="9.489602067067864"><ele>483.0</ele><time>2026-04-18T16:30:50Z</time></trkpt><trkpt lat="44.84932833426014" lon="9.489671796387709"><ele>481.1666666666667</ele><time>2026-04-18T16:30:52Z</time></trkpt><trkpt lat="44.849290007250154" lon="9.489786496246742"><ele>479.33333333333337</ele><time>2026-04-18T16:30:54Z</time></trkpt><trkpt lat="44.84930713105645" lon="9.489903014116843"><ele>477.5</ele><time>2026-04-18T16:30:56Z</time></trkpt><trkpt lat="44.84933994500867" lon="9.489993998295962"><ele>475.6666666666667</ele><time>2026-04-18T16:30:58Z</time></trkpt><trkpt lat="44.849412030066276" lon="9.490051212283431"><ele>473.83333333333337</ele><time>2026-04-18T16:31:02Z</time></trkpt><trkpt lat="44.84947121993086" lon="9.49011211853704"><ele>472.0</ele><time>2026-04-18T16:31:04Z</time></trkpt><trkpt lat="44.84954630082975" lon="9.490155536131894"><ele>471.00000000000006</ele><time>2026-04-18T16:31:06Z</time></trkpt><trkpt lat="44.84962853375175" lon="9.490195405061268"><ele>470.0</ele><time>2026-04-18T16:31:08Z</time></trkpt><trkpt lat="44.849703711718654" lon="9.490222817033251"><ele>469.0</ele><time>2026-04-18T16:31:10Z</time></trkpt><trkpt lat="44.84978646702342" lon="9.490241278862722"><ele>468.0</ele><time>2026-04-18T16:31:12Z</time></trkpt><trkpt lat="44.84986176212424" lon="9.49025009784104"><ele>467.00000000000006</ele><time>2026-04-18T16:31:14Z</time></trkpt><trkpt lat="44.849938173708985" lon="9.490255013120498"><ele>466.0</ele><time>2026-04-18T16:31:16Z</time></trkpt><trkpt lat="44.8500189766566" lon="9.490257979585406"><ele>466.00000000000006</ele><time>2026-04-18T16:31:18Z</time></trkpt><trkpt lat="44.85010419594901" lon="9.490261365653051"><ele>466.0</ele><time>2026-04-18T16:31:20Z</time></trkpt><trkpt lat="44.85019069406589" lon="9.490266522679164"><ele>466.0</ele><time>2026-04-18T16:31:23Z</time></trkpt><trkpt lat="44.85026385388973" lon="9.490275122790079"><ele>466.0</ele><time>2026-04-18T16:31:26Z</time></trkpt><trkpt lat="44.850334673296814" lon="9.4902985151397"><ele>466.00000000000006</ele><time>2026-04-18T16:31:29Z</time></trkpt><trkpt lat="44.8504039596267" lon="9.49032480734977"><ele>466.0</ele><time>2026-04-18T16:31:31Z</time></trkpt><trkpt lat="44.850477410651905" lon="9.490315655895978"><ele>466.50000000000006</ele><time>2026-04-18T16:31:33Z</time></trkpt><trkpt lat="44.85056952872027" lon="9.49032268144244"><ele>467.0</ele><time>2026-04-18T16:31:35Z</time></trkpt><trkpt lat="44.85065725349639" lon="9.490367466259093"><ele>467.5</ele><time>2026-04-18T16:31:37Z</time></trkpt><trkpt lat="44.85074600254717" lon="9.490387899865388"><ele>468.0</ele><time>2026-04-18T16:31:39Z</time></trkpt><trkpt lat="44.850821345152895" lon="9.49041255060114"><ele>468.50000000000006</ele><time>2026-04-18T16:31:41Z</time></trkpt><trkpt lat="44.85089686934787" lon="9.490429190685468"><ele>469.0</ele><time>2026-04-18T16:31:43Z</time></trkpt><trkpt lat="44.85094324300688" lon="9.490495784858721"><ele>464.1666666666667</ele><time>2026-04-18T16:31:45Z</time></trkpt><trkpt lat="44.850998051269244" lon="9.490558121825286"><ele>459.33333333333337</ele><time>2026-04-18T16:31:47Z</time></trkpt><trkpt lat="44.8510614850643" lon="9.4906281076108"><ele>454.5</ele><time>2026-04-18T16:31:49Z</time></trkpt><trkpt lat="44.851116179190676" lon="9.490692174400062"><ele>449.66666666666663</ele><time>2026-04-18T16:31:51Z</time></trkpt><trkpt lat="44.85117934313803" lon="9.490744192004563"><ele>444.8333333333333</ele><time>2026-04-18T16:31:53Z</time></trkpt><trkpt lat="44.85123558721028" lon="9.490816409838995"><ele>440.0</ele><time>2026-04-18T16:31:55Z</time></trkpt><trkpt lat="44.8513068023189" lon="9.490894840538756"><ele>439.99999999999994</ele><time>2026-04-18T16:31:57Z</time></trkpt><trkpt lat="44.8513720736193" lon="9.490962364798586"><ele>440.0</ele><time>2026-04-18T16:31:59Z</time></trkpt><trkpt lat="44.85144057090151" lon="9.491026207142333"><ele>440.0</ele><time>2026-04-18T16:32:01Z</time></trkpt><trkpt lat="44.851513254691795" lon="9.491078326233747"><ele>440.0</ele><time>2026-04-18T16:32:03Z</time></trkpt><trkpt lat="44.85159451268291" lon="9.491126933902372"><ele>439.99999999999994</ele><time>2026-04-18T16:32:05Z</time></trkpt><trkpt lat="44.851664191306796" lon="9.491213236396055"><ele>440.0</ele><time>2026-04-18T16:32:07Z</time></trkpt><trkpt lat="44.851735413234046" lon="9.491257069261067"><ele>437.99999999999994</ele><time>2026-04-18T16:32:09Z</time></trkpt><trkpt lat="44.85178994505608" lon="9.491332064480993"><ele>436.0</ele><time>2026-04-18T16:32:11Z</time></trkpt><trkpt lat="44.8518459111768" lon="9.491398166389798"><ele>434.0</ele><time>2026-04-18T16:32:13Z</time></trkpt><trkpt lat="44.85190941824891" lon="9.49146055154408"><ele>432.0</ele><time>2026-04-18T16:32:15Z</time></trkpt><trkpt lat="44.85197553210737" lon="9.491534014248215"><ele>429.99999999999994</ele><time>2026-04-18T16:32:17Z</time></trkpt><trkpt lat="44.85204547731994" lon="9.49159751365801"><ele>428.0</ele><time>2026-04-18T16:32:19Z</time></trkpt><trkpt lat="44.85211931783508" lon="9.491665686483095"><ele>427.8333333333333</ele><time>2026-04-18T16:32:21Z</time></trkpt><trkpt lat="44.8521977825042" lon="9.491726947113305"><ele>427.66666666666663</ele><time>2026-04-18T16:32:23Z</time></trkpt><trkpt lat="44.85226765845015" lon="9.491785092338324"><ele>427.5</ele><time>2026-04-18T16:32:25Z</time></trkpt><trkpt lat="44.852341632159806" lon="9.491841812735693"><ele>427.33333333333337</ele><time>2026-04-18T16:32:27Z</time></trkpt><trkpt lat="44.85241136737945" lon="9.49190461248117"><ele>427.1666666666667</ele><time>2026-04-18T16:32:29Z</time></trkpt><trkpt lat="44.85247982815737" lon="9.491967020927438"><ele>427.0</ele><time>2026-04-18T16:32:31Z</time></trkpt><trkpt lat="44.852553998856216" lon="9.492038784652454"><ele>424.50000000000006</ele><time>2026-04-18T16:32:33Z</time></trkpt><trkpt lat="44.85261762865978" lon="9.492103423768894"><ele>422.0</ele><time>2026-04-18T16:32:35Z</time></trkpt><trkpt lat="44.85267190818424" lon="9.492169101829282"><ele>419.5</ele><time>2026-04-18T16:32:37Z</time></trkpt><trkpt lat="44.85273398565812" lon="9.492239758812987"><ele>417.0</ele><time>2026-04-18T16:32:39Z</time></trkpt><trkpt lat="44.85278467624013" lon="9.492301931071642"><ele>414.50000000000006</ele><time>2026-04-18T16:32:41Z</time></trkpt><trkpt lat="44.852836687202206" lon="9.492384413365066"><ele>412.0</ele><time>2026-04-18T16:32:43Z</time></trkpt><trkpt lat="44.85286241890377" lon="9.492491804125095"><ele>411.50000000000006</ele><time>2026-04-18T16:32:45Z</time></trkpt><trkpt lat="44.85287217062831" lon="9.492605339544134"><ele>411.0</ele><time>2026-04-18T16:32:48Z</time></trkpt><trkpt lat="44.85285752732781" lon="9.492716261521602"><ele>410.5</ele><time>2026-04-18T16:32:51Z</time></trkpt><trkpt lat="44.85283945349428" lon="9.492837931360606"><ele>410.0</ele><time>2026-04-18T16:32:54Z</time></trkpt><trkpt lat="44.85281519831449" lon="9.492934373507442"><ele>409.50000000000006</ele><time>2026-04-18T16:32:56Z</time></trkpt><trkpt lat="44.852768233520266" lon="9.49302956235782"><ele>409.0</ele><time>2026-04-18T16:32:58Z</time></trkpt><trkpt lat="44.85276141129359" lon="9.493157592720681"><ele>406.83333333333337</ele><time>2026-04-18T16:33:00Z</time></trkpt><trkpt lat="44.85275668897607" lon="9.493277659536622"><ele>404.6666666666667</ele><time>2026-04-18T16:33:02Z</time></trkpt><trkpt lat="44.85277803087542" lon="9.493385850070142"><ele>402.5</ele><time>2026-04-18T16:33:05Z</time></trkpt><trkpt lat="44.85278536995221" lon="9.493504167614375"><ele>400.33333333333337</ele><time>2026-04-18T16:33:08.001Z</time></trkpt><trkpt lat="44.85277903619659" lon="9.493633464522931"><ele>398.1666666666667</ele><time>2026-04-18T16:33:10.001Z</time></trkpt><trkpt lat="44.85277755099711" lon="9.493766663679322"><ele>396.0</ele><time>2026-04-18T16:33:12.001Z</time></trkpt><trkpt lat="44.852782409164455" lon="9.493891035372032"><ele>395.0</ele><time>2026-04-18T16:33:14.001Z</time></trkpt><trkpt lat="44.852799284230066" lon="9.49401190348797"><ele>394.0</ele><time>2026-04-18T16:33:16.001Z</time></trkpt><trkpt lat="44.852825524387114" lon="9.494120642215822"><ele>393.0</ele><time>2026-04-18T16:33:18.001Z</time></trkpt><trkpt lat="44.85286688588034" lon="9.494246933644346"><ele>392.0</ele><time>2026-04-18T16:33:20.001Z</time></trkpt><trkpt lat="44.85291216819808" lon="9.494381580587978"><ele>391.0</ele><time>2026-04-18T16:33:22.001Z</time></trkpt><trkpt lat="44.85297379910759" lon="9.49451049758831"><ele>390.8</ele><time>2026-04-18T16:33:24.001Z</time></trkpt><trkpt lat="44.853021277045485" lon="9.494643437137285"><ele>390.6</ele><time>2026-04-18T16:33:26.001Z</time></trkpt><trkpt lat="44.85305863330271" lon="9.494771016563444"><ele>390.4</ele><time>2026-04-18T16:33:28.001Z</time></trkpt><trkpt lat="44.8531066212932" lon="9.494879255383701"><ele>390.2</ele><time>2026-04-18T16:33:30.001Z</time></trkpt><trkpt lat="44.85314347336324" lon="9.494997800602325"><ele>390.0</ele><time>2026-04-18T16:33:32.001Z</time></trkpt><trkpt lat="44.85319643405686" lon="9.4951106971705"><ele>390.0</ele><time>2026-04-18T16:33:34.001Z</time></trkpt><trkpt lat="44.85325411315792" lon="9.49521051225124"><ele>390.0</ele><time>2026-04-18T16:33:36.001Z</time></trkpt><trkpt lat="44.85333122163927" lon="9.495316041774947"><ele>390.0</ele><time>2026-04-18T16:33:38.001Z</time></trkpt><trkpt lat="44.8534111335795" lon="9.495408120435805"><ele>390.0</ele><time>2026-04-18T16:33:40.001Z</time></trkpt><trkpt lat="44.853507134340504" lon="9.49551033668874"><ele>390.0</ele><time>2026-04-18T16:33:42Z</time></trkpt><trkpt lat="44.853590480846925" lon="9.49558852742065"><ele>387.8333333333333</ele><time>2026-04-18T16:33:44Z</time></trkpt><trkpt lat="44.85368478015537" lon="9.495659063728986"><ele>385.6666666666667</ele><time>2026-04-18T16:33:46Z</time></trkpt><trkpt lat="44.85377572877569" lon="9.49569752828732"><ele>383.5</ele><time>2026-04-18T16:33:48Z</time></trkpt><trkpt lat="44.853857750623554" lon="9.49575610102422"><ele>381.33333333333337</ele><time>2026-04-18T16:33:50Z</time></trkpt><trkpt lat="44.85392019607435" lon="9.495806703943229"><ele>379.1666666666667</ele><time>2026-04-18T16:33:52Z</time></trkpt><trkpt lat="44.85399598280007" lon="9.495839834334422"><ele>377.0</ele><time>2026-04-18T16:33:54Z</time></trkpt><trkpt lat="44.85408089722713" lon="9.495868459356618"><ele>377.0</ele><time>2026-04-18T16:33:56Z</time></trkpt><trkpt lat="44.85417361971645" lon="9.495897303081744"><ele>377.0</ele><time>2026-04-18T16:33:58Z</time></trkpt><trkpt lat="44.85427185449623" lon="9.495927861483345"><ele>377.0</ele><time>2026-04-18T16:34:00Z</time></trkpt><trkpt lat="44.854372029249866" lon="9.495964160763327"><ele>377.0</ele><time>2026-04-18T16:34:02Z</time></trkpt><trkpt lat="44.854458416859615" lon="9.49600484070147"><ele>377.0</ele><time>2026-04-18T16:34:04Z</time></trkpt><trkpt lat="44.85452567805004" lon="9.496052280830284"><ele>375.0</ele><time>2026-04-18T16:34:06Z</time></trkpt><trkpt lat="44.85457790009336" lon="9.496127584903112"><ele>373.0</ele><time>2026-04-18T16:34:08Z</time></trkpt><trkpt lat="44.854627367339866" lon="9.496219042770075"><ele>371.0</ele><time>2026-04-18T16:34:10Z</time></trkpt><trkpt lat="44.85465142384393" lon="9.496325478317631"><ele>369.0</ele><time>2026-04-18T16:34:12Z</time></trkpt><trkpt lat="44.85464975068456" lon="9.496463281962656"><ele>367.0</ele><time>2026-04-18T16:34:14Z</time></trkpt><trkpt lat="44.85464134215073" lon="9.496599169530315"><ele>365.0</ele><time>2026-04-18T16:34:16Z</time></trkpt><trkpt lat="44.85463321417107" lon="9.496773407227751"><ele>363.75</ele><time>2026-04-18T16:34:18Z</time></trkpt><trkpt lat="44.85461718954196" lon="9.49686910668761"><ele>362.5</ele><time>2026-04-18T16:34:19Z</time></trkpt><trkpt lat="44.854588022144256" lon="9.497037049521527"><ele>361.25</ele><time>2026-04-18T16:34:21Z</time></trkpt><trkpt lat="44.85459075550658" lon="9.497209712443553"><ele>360.0</ele><time>2026-04-18T16:34:23Z</time></trkpt><trkpt lat="44.85463233466319" lon="9.497395150809808"><ele>359.6</ele><time>2026-04-18T16:34:25Z</time></trkpt><trkpt lat="44.85465711004521" lon="9.49748948765286"><ele>359.2</ele><time>2026-04-18T16:34:26Z</time></trkpt><trkpt lat="44.85468235761341" lon="9.497621510132763"><ele>358.79999999999995</ele><time>2026-04-18T16:34:28Z</time></trkpt><trkpt lat="44.854700360468875" lon="9.497764505440825"><ele>358.4</ele><time>2026-04-18T16:34:30Z</time></trkpt><trkpt lat="44.854733638970814" lon="9.497903800881197"><ele>358.0</ele><time>2026-04-18T16:34:32Z</time></trkpt><trkpt lat="44.85478941477818" lon="9.498015999924803"><ele>356.4</ele><time>2026-04-18T16:34:34Z</time></trkpt><trkpt lat="44.85485409291338" lon="9.498123002044954"><ele>354.79999999999995</ele><time>2026-04-18T16:34:36Z</time></trkpt><trkpt lat="44.85491376613602" lon="9.4982437441046"><ele>353.2</ele><time>2026-04-18T16:34:38Z</time></trkpt><trkpt lat="44.8549520767755" lon="9.498384352064384"><ele>351.6</ele><time>2026-04-18T16:34:40Z</time></trkpt><trkpt lat="44.85498148474323" lon="9.498545356149858"><ele>350.0</ele><time>2026-04-18T16:34:42Z</time></trkpt><trkpt lat="44.85500275219564" lon="9.498678102525444"><ele>348.6</ele><time>2026-04-18T16:34:44Z</time></trkpt><trkpt lat="44.8550120989247" lon="9.498798925006128"><ele>347.2</ele><time>2026-04-18T16:34:46Z</time></trkpt><trkpt lat="44.854976585431324" lon="9.498922519383036"><ele>345.79999999999995</ele><time>2026-04-18T16:34:48Z</time></trkpt><trkpt lat="44.85489059582484" lon="9.499009953581563"><ele>344.4</ele><time>2026-04-18T16:34:50Z</time></trkpt><trkpt lat="44.854779812391996" lon="9.499015526758296"><ele>343.0</ele><time>2026-04-18T16:34:52Z</time></trkpt><trkpt lat="44.854669013339524" lon="9.499041412645118"><ele>343.0</ele><time>2026-04-18T16:34:54Z</time></trkpt><trkpt lat="44.854555974730445" lon="9.499060857132447"><ele>343.0</ele><time>2026-04-18T16:34:56Z</time></trkpt><trkpt lat="44.85444783086909" lon="9.499064061996503"><ele>343.0</ele><time>2026-04-18T16:34:58Z</time></trkpt><trkpt lat="44.85433755577812" lon="9.499055527556271"><ele>343.0</ele><time>2026-04-18T16:35:00Z</time></trkpt><trkpt lat="44.854231388594656" lon="9.499024451805798"><ele>343.0</ele><time>2026-04-18T16:35:02Z</time></trkpt><trkpt lat="44.854120355388986" lon="9.498977083051978"><ele>343.16666666666663</ele><time>2026-04-18T16:35:04Z</time></trkpt><trkpt lat="44.854057495510226" lon="9.498948220421282"><ele>343.3333333333333</ele><time>2026-04-18T16:35:05Z</time></trkpt><trkpt lat="44.85399402627276" lon="9.49891907802965"><ele>343.5</ele><time>2026-04-18T16:35:06Z</time></trkpt><trkpt lat="44.85392945744549" lon="9.498889488339787"><ele>343.6666666666667</ele><time>2026-04-18T16:35:07Z</time></trkpt><trkpt lat="44.853863261453604" lon="9.498861154117755"><ele>343.83333333333337</ele><time>2026-04-18T16:35:08Z</time></trkpt><trkpt lat="44.8537480199664" lon="9.498825427998314"><ele>344.0</ele><time>2026-04-18T16:35:10Z</time></trkpt><trkpt lat="44.85363743075316" lon="9.498769887185292"><ele>343.79999999999995</ele><time>2026-04-18T16:35:12.001Z</time></trkpt><trkpt lat="44.85356277425027" lon="9.498666708288457"><ele>343.59999999999997</ele><time>2026-04-18T16:35:14.001Z</time></trkpt><trkpt lat="44.85347751394068" lon="9.498575927716677"><ele>343.4</ele><time>2026-04-18T16:35:16.001Z</time></trkpt><trkpt lat="44.853382096653995" lon="9.498493512277209"><ele>343.2</ele><time>2026-04-18T16:35:18.001Z</time></trkpt><trkpt lat="44.85332557278362" lon="9.498449139534616"><ele>343.0</ele><time>2026-04-18T16:35:19.001Z</time></trkpt><trkpt lat="44.853257458351294" lon="9.4984056010196"><ele>343.0</ele><time>2026-04-18T16:35:20.001Z</time></trkpt><trkpt lat="44.85318566215799" lon="9.49837120122532"><ele>343.0</ele><time>2026-04-18T16:35:21.001Z</time></trkpt><trkpt lat="44.85311712649752" lon="9.498344902477353"><ele>343.0</ele><time>2026-04-18T16:35:22.001Z</time></trkpt><trkpt lat="44.85304285933526" lon="9.498322518221183"><ele>343.0</ele><time>2026-04-18T16:35:23.001Z</time></trkpt><trkpt lat="44.852973700786386" lon="9.498305920089342"><ele>343.0</ele><time>2026-04-18T16:35:24.001Z</time></trkpt><trkpt lat="44.85289848750957" lon="9.4982957692299"><ele>343.0</ele><time>2026-04-18T16:35:25.001Z</time></trkpt><trkpt lat="44.85282399733276" lon="9.498293467070084"><ele>343.0</ele><time>2026-04-18T16:35:26.001Z</time></trkpt><trkpt lat="44.85275034683905" lon="9.49832072874085"><ele>343.0</ele><time>2026-04-18T16:35:27.001Z</time></trkpt><trkpt lat="44.852675572288284" lon="9.498314929528686"><ele>343.0</ele><time>2026-04-18T16:35:28.001Z</time></trkpt><trkpt lat="44.85260003255976" lon="9.49834835460479"><ele>343.0</ele><time>2026-04-18T16:35:29.001Z</time></trkpt><trkpt lat="44.852524503706434" lon="9.498399844883533"><ele>343.0</ele><time>2026-04-18T16:35:30.001Z</time></trkpt><trkpt lat="44.85245364091457" lon="9.49845953428837"><ele>343.0</ele><time>2026-04-18T16:35:31.001Z</time></trkpt><trkpt lat="44.85239512353876" lon="9.498568619842324"><ele>343.0</ele><time>2026-04-18T16:35:32.001Z</time></trkpt><trkpt lat="44.85231545153387" lon="9.498634134883085"><ele>342.2</ele><time>2026-04-18T16:35:33.001Z</time></trkpt><trkpt lat="44.85223134710658" lon="9.49870877977403"><ele>341.4</ele><time>2026-04-18T16:35:34.001Z</time></trkpt><trkpt lat="44.85214061800832" lon="9.498797377343651"><ele>340.59999999999997</ele><time>2026-04-18T16:35:35.001Z</time></trkpt><trkpt lat="44.85206202186641" lon="9.498907237176464"><ele>339.79999999999995</ele><time>2026-04-18T16:35:36.001Z</time></trkpt><trkpt lat="44.85197071438418" lon="9.49902631354127"><ele>339.0</ele><time>2026-04-18T16:35:37.001Z</time></trkpt><trkpt lat="44.85190612378041" lon="9.499117274119902"><ele>339.1666666666667</ele><time>2026-04-18T16:35:38.001Z</time></trkpt><trkpt lat="44.85184070310382" lon="9.499179136801633"><ele>339.3333333333333</ele><time>2026-04-18T16:35:39Z</time></trkpt><trkpt lat="44.85179898095778" lon="9.499281636271974"><ele>339.5</ele><time>2026-04-18T16:35:40Z</time></trkpt><trkpt lat="44.851748629482984" lon="9.499363817672613"><ele>339.66666666666663</ele><time>2026-04-18T16:35:41Z</time></trkpt><trkpt lat="44.851742093954215" lon="9.499469992256804"><ele>339.8333333333333</ele><time>2026-04-18T16:35:42Z</time></trkpt><trkpt lat="44.851738401540054" lon="9.499584979446485"><ele>340.0</ele><time>2026-04-18T16:35:43Z</time></trkpt><trkpt lat="44.851745381174084" lon="9.499724049004616"><ele>338.8</ele><time>2026-04-18T16:35:44Z</time></trkpt><trkpt lat="44.85173422919325" lon="9.499900464738804"><ele>337.6</ele><time>2026-04-18T16:35:45Z</time></trkpt><trkpt lat="44.85174247392282" lon="9.500056919871131"><ele>336.4</ele><time>2026-04-18T16:35:46Z</time></trkpt><trkpt lat="44.85173147288323" lon="9.500204706972657"><ele>335.2</ele><time>2026-04-18T16:35:47Z</time></trkpt><trkpt lat="44.85172582237962" lon="9.50034947341128"><ele>334.0</ele><time>2026-04-18T16:35:48Z</time></trkpt><trkpt lat="44.8516950639555" lon="9.500506290162589"><ele>333.79999999999995</ele><time>2026-04-18T16:35:49Z</time></trkpt><trkpt lat="44.851666848650225" lon="9.50064645680555"><ele>333.59999999999997</ele><time>2026-04-18T16:35:50Z</time></trkpt><trkpt lat="44.85164122147808" lon="9.500771595465979"><ele>333.4</ele><time>2026-04-18T16:35:51Z</time></trkpt><trkpt lat="44.8516174949135" lon="9.500887453414474"><ele>333.2</ele><time>2026-04-18T16:35:52Z</time></trkpt><trkpt lat="44.85159854809579" lon="9.500999392849407"><ele>333.0</ele><time>2026-04-18T16:35:53Z</time></trkpt><trkpt lat="44.85159584358716" lon="9.501129085134888"><ele>333.59999999999997</ele><time>2026-04-18T16:35:54Z</time></trkpt><trkpt lat="44.85159856549232" lon="9.501278835023998"><ele>334.2</ele><time>2026-04-18T16:35:55Z</time></trkpt><trkpt lat="44.85159595161469" lon="9.501418316407852"><ele>334.8</ele><time>2026-04-18T16:35:56Z</time></trkpt><trkpt lat="44.85159551082772" lon="9.501550904160654"><ele>335.4</ele><time>2026-04-18T16:35:57Z</time></trkpt><trkpt lat="44.851603873562105" lon="9.501662368903052"><ele>336.0</ele><time>2026-04-18T16:35:58Z</time></trkpt><trkpt lat="44.851633502795394" lon="9.501767548471953"><ele>336.0</ele><time>2026-04-18T16:35:59Z</time></trkpt><trkpt lat="44.85168739110058" lon="9.501864676949625"><ele>336.0</ele><time>2026-04-18T16:36:00Z</time></trkpt><trkpt lat="44.85173160672864" lon="9.50199277703665"><ele>336.0</ele><time>2026-04-18T16:36:01Z</time></trkpt><trkpt lat="44.8517467386745" lon="9.50213216497287"><ele>336.0</ele><time>2026-04-18T16:36:02Z</time></trkpt><trkpt lat="44.8517775935489" lon="9.502273018811296"><ele>336.0</ele><time>2026-04-18T16:36:03Z</time></trkpt><trkpt lat="44.851804342205206" lon="9.502395127751491"><ele>335.14285714285717</ele><time>2026-04-18T16:36:04Z</time></trkpt><trkpt lat="44.85182425067333" lon="9.50249451949033"><ele>334.2857142857143</ele><time>2026-04-18T16:36:05Z</time></trkpt><trkpt lat="44.8518361513692" lon="9.502583314845712"><ele>333.42857142857144</ele><time>2026-04-18T16:36:06Z</time></trkpt><trkpt lat="44.85184049055592" lon="9.502675537570783"><ele>332.57142857142856</ele><time>2026-04-18T16:36:07Z</time></trkpt><trkpt lat="44.85182738260083" lon="9.502766736798062"><ele>331.7142857142857</ele><time>2026-04-18T16:36:08Z</time></trkpt><trkpt lat="44.85180928600215" lon="9.502877257006416"><ele>330.8571428571429</ele><time>2026-04-18T16:36:09Z</time></trkpt><trkpt lat="44.8517840086485" lon="9.502992580252897"><ele>330.0</ele><time>2026-04-18T16:36:10Z</time></trkpt><trkpt lat="44.85175577438426" lon="9.503111938322116"><ele>332.0</ele><time>2026-04-18T16:36:11Z</time></trkpt><trkpt lat="44.85174347903681" lon="9.503220347667627"><ele>334.0</ele><time>2026-04-18T16:36:12Z</time></trkpt><trkpt lat="44.85169976186417" lon="9.503316684943607"><ele>336.0</ele><time>2026-04-18T16:36:13Z</time></trkpt><trkpt lat="44.8516608087947" lon="9.503421956691408"><ele>338.0</ele><time>2026-04-18T16:36:14Z</time></trkpt><trkpt lat="44.85163569395458" lon="9.503531047622923"><ele>340.0</ele><time>2026-04-18T16:36:15Z</time></trkpt><trkpt lat="44.851604780094725" lon="9.503632431912806"><ele>342.0</ele><time>2026-04-18T16:36:16Z</time></trkpt><trkpt lat="44.8515707820787" lon="9.503726691488268"><ele>341.6</ele><time>2026-04-18T16:36:17Z</time></trkpt><trkpt lat="44.85155259645034" lon="9.503833852089151"><ele>341.20000000000005</ele><time>2026-04-18T16:36:18Z</time></trkpt><trkpt lat="44.851528635278775" lon="9.503932872282329"><ele>340.8</ele><time>2026-04-18T16:36:19Z</time></trkpt><trkpt lat="44.851506237269916" lon="9.504021668924118"><ele>340.4</ele><time>2026-04-18T16:36:20Z</time></trkpt><trkpt lat="44.85142660148574" lon="9.504151089608124"><ele>340.0</ele><time>2026-04-18T16:36:22Z</time></trkpt><trkpt lat="44.8513088001139" lon="9.504193231291705"><ele>340.0</ele><time>2026-04-18T16:36:24Z</time></trkpt><trkpt lat="44.851245424573314" lon="9.504200238798576"><ele>340.0</ele><time>2026-04-18T16:36:25Z</time></trkpt><trkpt lat="44.85118208131183" lon="9.504226123340262"><ele>340.0</ele><time>2026-04-18T16:36:26Z</time></trkpt><trkpt lat="44.85111892214446" lon="9.5042587520701"><ele>340.0</ele><time>2026-04-18T16:36:27Z</time></trkpt><trkpt lat="44.85105987619046" lon="9.50429450486347"><ele>340.0</ele><time>2026-04-18T16:36:28Z</time></trkpt><trkpt lat="44.85100081152775" lon="9.504333792747747"><ele>340.0</ele><time>2026-04-18T16:36:29Z</time></trkpt><trkpt lat="44.850942006815934" lon="9.504377902612301"><ele>340.0</ele><time>2026-04-18T16:36:30Z</time></trkpt><trkpt lat="44.850880231260376" lon="9.504436202940246"><ele>340.6</ele><time>2026-04-18T16:36:31Z</time></trkpt><trkpt lat="44.85081467118612" lon="9.504512685924205"><ele>341.2</ele><time>2026-04-18T16:36:32Z</time></trkpt><trkpt lat="44.85074386701567" lon="9.504599113668526"><ele>341.79999999999995</ele><time>2026-04-18T16:36:33Z</time></trkpt><trkpt lat="44.85065676227223" lon="9.504678574385853"><ele>342.4</ele><time>2026-04-18T16:36:34Z</time></trkpt><trkpt lat="44.85058054052686" lon="9.504777708444934"><ele>343.0</ele><time>2026-04-18T16:36:35Z</time></trkpt><trkpt lat="44.85050242686689" lon="9.504880750672603"><ele>341.5</ele><time>2026-04-18T16:36:36Z</time></trkpt><trkpt lat="44.850432887778375" lon="9.50500206175888"><ele>340.0</ele><time>2026-04-18T16:36:37Z</time></trkpt><trkpt lat="44.850346883527195" lon="9.505104534071055"><ele>338.5</ele><time>2026-04-18T16:36:38Z</time></trkpt><trkpt lat="44.850254978636904" lon="9.505205277097206"><ele>337.0</ele><time>2026-04-18T16:36:39Z</time></trkpt><trkpt lat="44.850159322175976" lon="9.505302110155487"><ele>339.20000000000005</ele><time>2026-04-18T16:36:40Z</time></trkpt><trkpt lat="44.85006850886194" lon="9.505396124686577"><ele>341.4</ele><time>2026-04-18T16:36:41Z</time></trkpt><trkpt lat="44.84998315084741" lon="9.505490280148079"><ele>343.6</ele><time>2026-04-18T16:36:42Z</time></trkpt><trkpt lat="44.8499070821424" lon="9.505576307654865"><ele>345.79999999999995</ele><time>2026-04-18T16:36:43Z</time></trkpt><trkpt lat="44.84984280627184" lon="9.50564460353333"><ele>348.0</ele><time>2026-04-18T16:36:44Z</time></trkpt><trkpt lat="44.849775868278584" lon="9.505700131075084"><ele>348.6666666666667</ele><time>2026-04-18T16:36:45Z</time></trkpt><trkpt lat="44.84970711558703" lon="9.505758621620764"><ele>349.3333333333333</ele><time>2026-04-18T16:36:46Z</time></trkpt><trkpt lat="44.84964425424704" lon="9.505834095987995"><ele>350.0</ele><time>2026-04-18T16:36:47Z</time></trkpt><trkpt lat="44.84958563498048" lon="9.505913320633672"><ele>350.66666666666663</ele><time>2026-04-18T16:36:48Z</time></trkpt><trkpt lat="44.84953732955969" lon="9.50600689662293"><ele>351.3333333333333</ele><time>2026-04-18T16:36:49Z</time></trkpt><trkpt lat="44.84950143784109" lon="9.506108599338356"><ele>352.0</ele><time>2026-04-18T16:36:50Z</time></trkpt><trkpt lat="44.84947287568234" lon="9.506212503246966"><ele>354.0</ele><time>2026-04-18T16:36:51Z</time></trkpt><trkpt lat="44.84942501075081" lon="9.506310080249971"><ele>356.0</ele><time>2026-04-18T16:36:52Z</time></trkpt><trkpt lat="44.849373081860676" lon="9.506439254081672"><ele>358.0</ele><time>2026-04-18T16:36:53Z</time></trkpt><trkpt lat="44.849313045127296" lon="9.506565545011922"><ele>360.0</ele><time>2026-04-18T16:36:54Z</time></trkpt><trkpt lat="44.8492680328545" lon="9.50668373340018"><ele>362.0</ele><time>2026-04-18T16:36:55Z</time></trkpt><trkpt lat="44.849200446382575" lon="9.506747346862245"><ele>363.33333333333337</ele><time>2026-04-18T16:36:56Z</time></trkpt><trkpt lat="44.84915115305543" lon="9.506806346897081"><ele>364.6666666666667</ele><time>2026-04-18T16:36:57Z</time></trkpt><trkpt lat="44.849074272217145" lon="9.50691241387769"><ele>366.0</ele><time>2026-04-18T16:36:59Z</time></trkpt><trkpt lat="44.849074954266776" lon="9.507089505486686"><ele>367.3333333333333</ele><time>2026-04-18T16:37:10Z</time></trkpt><trkpt lat="44.849038458751664" lon="9.507004024135039"><ele>368.66666666666663</ele><time>2026-04-18T16:37:16Z</time></trkpt><trkpt lat="44.84908151881594" lon="9.506908424376164"><ele>370.0</ele><time>2026-04-18T16:37:24.001Z</time></trkpt><trkpt lat="44.849037143204406" lon="9.507000942670585"><ele>371.0</ele><time>2026-04-18T16:37:28.001Z</time></trkpt><trkpt lat="44.84911374376045" lon="9.507119383617907"><ele>372.0</ele><time>2026-04-18T16:38:11Z</time></trkpt><trkpt lat="44.84911579708423" lon="9.507228078686584"><ele>373.0</ele><time>2026-04-18T16:38:13Z</time></trkpt><trkpt lat="44.84902228214318" lon="9.507282405014157"><ele>374.0</ele><time>2026-04-18T16:38:15Z</time></trkpt><trkpt lat="44.84891933367504" lon="9.507403057726755"><ele>375.0</ele><time>2026-04-18T16:38:17Z</time></trkpt><trkpt lat="44.84882821432185" lon="9.50753259280984"><ele>375.0</ele><time>2026-04-18T16:38:19Z</time></trkpt><trkpt lat="44.8487793926345" lon="9.507604805435234"><ele>375.0</ele><time>2026-04-18T16:38:20Z</time></trkpt><trkpt lat="44.84873170355023" lon="9.507683968805361"><ele>375.0</ele><time>2026-04-18T16:38:21Z</time></trkpt><trkpt lat="44.84867819087174" lon="9.507767887425423"><ele>375.0</ele><time>2026-04-18T16:38:22Z</time></trkpt><trkpt lat="44.848625426491914" lon="9.507854568862431"><ele>375.0</ele><time>2026-04-18T16:38:23Z</time></trkpt><trkpt lat="44.8485744028634" lon="9.507929768856322"><ele>375.0</ele><time>2026-04-18T16:38:24Z</time></trkpt><trkpt lat="44.848520011521735" lon="9.50800960163942"><ele>376.0</ele><time>2026-04-18T16:38:25Z</time></trkpt><trkpt lat="44.848451830040794" lon="9.508111520614516"><ele>377.0</ele><time>2026-04-18T16:38:26Z</time></trkpt><trkpt lat="44.84840327016798" lon="9.5081717834756"><ele>378.0</ele><time>2026-04-18T16:38:27Z</time></trkpt><trkpt lat="44.84828511753167" lon="9.508322935525046"><ele>379.0</ele><time>2026-04-18T16:38:29Z</time></trkpt><trkpt lat="44.84814483414044" lon="9.508449009877687"><ele>379.0</ele><time>2026-04-18T16:38:32Z</time></trkpt><trkpt lat="44.84806461842786" lon="9.508593292814211"><ele>379.0</ele><time>2026-04-18T16:38:34Z</time></trkpt><trkpt lat="44.84801625890827" lon="9.50865561259371"><ele>379.0</ele><time>2026-04-18T16:38:35Z</time></trkpt><trkpt lat="44.84795659738071" lon="9.508718806540477"><ele>379.0</ele><time>2026-04-18T16:38:36Z</time></trkpt><trkpt lat="44.847911536286894" lon="9.508796679656266"><ele>379.0</ele><time>2026-04-18T16:38:37Z</time></trkpt><trkpt lat="44.84784840263249" lon="9.508825299062426"><ele>379.0</ele><time>2026-04-18T16:38:38Z</time></trkpt><trkpt lat="44.84778098373249" lon="9.508902378103462"><ele>379.5</ele><time>2026-04-18T16:38:39Z</time></trkpt><trkpt lat="44.847707731274646" lon="9.508955424288022"><ele>380.0</ele><time>2026-04-18T16:38:40Z</time></trkpt><trkpt lat="44.847633100834045" lon="9.508994700035181"><ele>380.5</ele><time>2026-04-18T16:38:41Z</time></trkpt><trkpt lat="44.8475538304185" lon="9.50903735075742"><ele>381.0</ele><time>2026-04-18T16:38:42Z</time></trkpt><trkpt lat="44.84747573942496" lon="9.509048136122638"><ele>381.5</ele><time>2026-04-18T16:38:43Z</time></trkpt><trkpt lat="44.847415867118784" lon="9.509088142982037"><ele>382.0</ele><time>2026-04-18T16:38:44Z</time></trkpt><trkpt lat="44.84735510248383" lon="9.50911845207358"><ele>382.0</ele><time>2026-04-18T16:38:45Z</time></trkpt><trkpt lat="44.84728365369499" lon="9.509140135968766"><ele>382.0</ele><time>2026-04-18T16:38:46Z</time></trkpt><trkpt lat="44.847209962792654" lon="9.50919088542685"><ele>382.0</ele><time>2026-04-18T16:38:47Z</time></trkpt><trkpt lat="44.84713535933709" lon="9.509260327709232"><ele>382.0</ele><time>2026-04-18T16:38:48Z</time></trkpt><trkpt lat="44.847060570314696" lon="9.50934733774963"><ele>382.0</ele><time>2026-04-18T16:38:49Z</time></trkpt><trkpt lat="44.846977051712905" lon="9.509420592708889"><ele>382.0</ele><time>2026-04-18T16:38:50Z</time></trkpt><trkpt lat="44.8468959034861" lon="9.50948255814638"><ele>382.0</ele><time>2026-04-18T16:38:51Z</time></trkpt><trkpt lat="44.846812228189656" lon="9.509548949817209"><ele>382.0</ele><time>2026-04-18T16:38:52Z</time></trkpt><trkpt lat="44.84672596670127" lon="9.509606052515002"><ele>382.0</ele><time>2026-04-18T16:38:53Z</time></trkpt><trkpt lat="44.846648785897635" lon="9.509669204323266"><ele>382.0</ele><time>2026-04-18T16:38:54Z</time></trkpt><trkpt lat="44.846512050305" lon="9.509765100922623"><ele>382.0</ele><time>2026-04-18T16:38:56Z</time></trkpt><trkpt lat="44.84643689624704" lon="9.509810100089199"><ele>381.6</ele><time>2026-04-18T16:38:57Z</time></trkpt><trkpt lat="44.846363793580245" lon="9.50986641960533"><ele>381.20000000000005</ele><time>2026-04-18T16:38:58Z</time></trkpt><trkpt lat="44.846295801260965" lon="9.50994382582279"><ele>380.8</ele><time>2026-04-18T16:38:59Z</time></trkpt><trkpt lat="44.84621638395808" lon="9.510012593132902"><ele>380.4</ele><time>2026-04-18T16:39:00Z</time></trkpt><trkpt lat="44.84613562210546" lon="9.510090626160135"><ele>380.0</ele><time>2026-04-18T16:39:01Z</time></trkpt><trkpt lat="44.84605384847152" lon="9.510164715212484"><ele>380.0</ele><time>2026-04-18T16:39:02Z</time></trkpt><trkpt lat="44.84596623828309" lon="9.510236235822783"><ele>380.0</ele><time>2026-04-18T16:39:03Z</time></trkpt><trkpt lat="44.84588671683638" lon="9.5103178052608"><ele>380.0</ele><time>2026-04-18T16:39:04Z</time></trkpt><trkpt lat="44.84581161323721" lon="9.510390454589663"><ele>380.0</ele><time>2026-04-18T16:39:05Z</time></trkpt><trkpt lat="44.84573014212117" lon="9.51046563691702"><ele>380.0</ele><time>2026-04-18T16:39:06Z</time></trkpt><trkpt lat="44.84564923231832" lon="9.510537122531552"><ele>378.6</ele><time>2026-04-18T16:39:07Z</time></trkpt><trkpt lat="44.845565538840326" lon="9.51059798697299"><ele>377.2</ele><time>2026-04-18T16:39:08Z</time></trkpt><trkpt lat="44.84548846865352" lon="9.510682693184219"><ele>375.79999999999995</ele><time>2026-04-18T16:39:09Z</time></trkpt><trkpt lat="44.84540815766476" lon="9.510760627211717"><ele>374.4</ele><time>2026-04-18T16:39:10Z</time></trkpt><trkpt lat="44.84531486986369" lon="9.510827536322918"><ele>373.0</ele><time>2026-04-18T16:39:11Z</time></trkpt><trkpt lat="44.845213773762744" lon="9.510878528764685"><ele>369.0</ele><time>2026-04-18T16:39:12Z</time></trkpt><trkpt lat="44.84511314170496" lon="9.510923966069411"><ele>365.0</ele><time>2026-04-18T16:39:13Z</time></trkpt><trkpt lat="44.84502322544779" lon="9.510970286720543"><ele>361.0</ele><time>2026-04-18T16:39:14Z</time></trkpt><trkpt lat="44.84494823316682" lon="9.511029535374016"><ele>357.0</ele><time>2026-04-18T16:39:15Z</time></trkpt><trkpt lat="44.84487902519247" lon="9.511093348557285"><ele>353.0</ele><time>2026-04-18T16:39:16Z</time></trkpt><trkpt lat="44.84481227188925" lon="9.511161067164425"><ele>354.79999999999995</ele><time>2026-04-18T16:39:17Z</time></trkpt><trkpt lat="44.84473959803089" lon="9.511241843465129"><ele>356.6</ele><time>2026-04-18T16:39:18Z</time></trkpt><trkpt lat="44.844676679092025" lon="9.511341211924107"><ele>358.4</ele><time>2026-04-18T16:39:19Z</time></trkpt><trkpt lat="44.84462054709766" lon="9.511455389725002"><ele>360.20000000000005</ele><time>2026-04-18T16:39:20Z</time></trkpt><trkpt lat="44.84456968828727" lon="9.511564469716696"><ele>362.0</ele><time>2026-04-18T16:39:21Z</time></trkpt><trkpt lat="44.8445168824666" lon="9.51166592241244"><ele>362.0</ele><time>2026-04-18T16:39:22Z</time></trkpt><trkpt lat="44.84447431085757" lon="9.511771719524234"><ele>362.0</ele><time>2026-04-18T16:39:23Z</time></trkpt><trkpt lat="44.84444653664852" lon="9.511889230138097"><ele>362.0</ele><time>2026-04-18T16:39:24.001Z</time></trkpt><trkpt lat="44.8444206445431" lon="9.512014464656506"><ele>362.0</ele><time>2026-04-18T16:39:25.001Z</time></trkpt><trkpt lat="44.84437467275257" lon="9.512137179407945"><ele>362.0</ele><time>2026-04-18T16:39:26.001Z</time></trkpt><trkpt lat="44.84433763872636" lon="9.512261437861026"><ele>363.0</ele><time>2026-04-18T16:39:27.001Z</time></trkpt><trkpt lat="44.844307908732986" lon="9.51238775747169"><ele>364.0</ele><time>2026-04-18T16:39:28.001Z</time></trkpt><trkpt lat="44.844253398070244" lon="9.51249680440028"><ele>365.0</ele><time>2026-04-18T16:39:29.001Z</time></trkpt><trkpt lat="44.84420505410721" lon="9.51260674878317"><ele>366.0</ele><time>2026-04-18T16:39:30.001Z</time></trkpt><trkpt lat="44.844154262864166" lon="9.512720000357543"><ele>367.0</ele><time>2026-04-18T16:39:31.001Z</time></trkpt><trkpt lat="44.84409903946643" lon="9.51283554240025"><ele>363.0</ele><time>2026-04-18T16:39:32.001Z</time></trkpt><trkpt lat="44.844014559432054" lon="9.512912266931847"><ele>359.0</ele><time>2026-04-18T16:39:33.001Z</time></trkpt><trkpt lat="44.8439386466499" lon="9.513015420393431"><ele>355.0</ele><time>2026-04-18T16:39:34.001Z</time></trkpt><trkpt lat="44.8438669651273" lon="9.513114725334463"><ele>351.0</ele><time>2026-04-18T16:39:35.001Z</time></trkpt><trkpt lat="44.84379217139973" lon="9.51321116824488"><ele>347.0</ele><time>2026-04-18T16:39:36.001Z</time></trkpt><trkpt lat="44.843717901817826" lon="9.513305006498687"><ele>347.0</ele><time>2026-04-18T16:39:37.001Z</time></trkpt><trkpt lat="44.84364842844376" lon="9.51341037248398"><ele>347.0</ele><time>2026-04-18T16:39:38.001Z</time></trkpt><trkpt lat="44.8435731474103" lon="9.513492607385874"><ele>347.0</ele><time>2026-04-18T16:39:39.001Z</time></trkpt><trkpt lat="44.84350172897264" lon="9.51358710344018"><ele>347.0</ele><time>2026-04-18T16:39:40.001Z</time></trkpt><trkpt lat="44.84342944833396" lon="9.513673004224064"><ele>347.0</ele><time>2026-04-18T16:39:41.001Z</time></trkpt><trkpt lat="44.84336049481651" lon="9.513740541652757"><ele>344.5</ele><time>2026-04-18T16:39:42.001Z</time></trkpt><trkpt lat="44.84330263507067" lon="9.51379064607204"><ele>342.0</ele><time>2026-04-18T16:39:43.001Z</time></trkpt><trkpt lat="44.84319183607722" lon="9.513880695497749"><ele>339.5</ele><time>2026-04-18T16:39:45.001Z</time></trkpt><trkpt lat="44.843134766267646" lon="9.513944960018202"><ele>337.0</ele><time>2026-04-18T16:39:46.001Z</time></trkpt><trkpt lat="44.84307765109949" lon="9.514012642907295"><ele>334.5</ele><time>2026-04-18T16:39:47.001Z</time></trkpt><trkpt lat="44.84302783825976" lon="9.514091993026286"><ele>332.0</ele><time>2026-04-18T16:39:48.001Z</time></trkpt><trkpt lat="44.84298494327029" lon="9.514187315834691"><ele>332.0</ele><time>2026-04-18T16:39:49.001Z</time></trkpt><trkpt lat="44.84294306331919" lon="9.514291105291429"><ele>332.0</ele><time>2026-04-18T16:39:50.001Z</time></trkpt><trkpt lat="44.842898734912986" lon="9.514394398443185"><ele>332.0</ele><time>2026-04-18T16:39:51.001Z</time></trkpt><trkpt lat="44.842856532438745" lon="9.514506599350218"><ele>332.0</ele><time>2026-04-18T16:39:52.001Z</time></trkpt><trkpt lat="44.842813192166275" lon="9.514613944478489"><ele>332.0</ele><time>2026-04-18T16:39:53.001Z</time></trkpt><trkpt lat="44.84277048705043" lon="9.51472610450319"><ele>332.0</ele><time>2026-04-18T16:39:54.001Z</time></trkpt><trkpt lat="44.84271282910927" lon="9.514821337282182"><ele>332.1428571428571</ele><time>2026-04-18T16:39:55.001Z</time></trkpt><trkpt lat="44.84268350241989" lon="9.514930117629387"><ele>332.28571428571433</ele><time>2026-04-18T16:39:56Z</time></trkpt><trkpt lat="44.84264293439233" lon="9.51501755010863"><ele>332.42857142857144</ele><time>2026-04-18T16:39:57Z</time></trkpt><trkpt lat="44.842607455719204" lon="9.515099604557596"><ele>332.57142857142856</ele><time>2026-04-18T16:39:58Z</time></trkpt><trkpt lat="44.84258159978762" lon="9.515180895333863"><ele>332.71428571428567</ele><time>2026-04-18T16:39:59Z</time></trkpt><trkpt lat="44.84255287486061" lon="9.51525991119882"><ele>332.8571428571429</ele><time>2026-04-18T16:40:00Z</time></trkpt><trkpt lat="44.84258347390758" lon="9.515374135464047"><ele>333.0</ele><time>2026-04-18T16:40:01Z</time></trkpt><trkpt lat="44.842612276776805" lon="9.515473805092906"><ele>330.3333333333333</ele><time>2026-04-18T16:40:02Z</time></trkpt><trkpt lat="44.84265416610046" lon="9.515582690973881"><ele>327.6666666666667</ele><time>2026-04-18T16:40:03Z</time></trkpt><trkpt lat="44.84269531057121" lon="9.515679749230078"><ele>325.0</ele><time>2026-04-18T16:40:04Z</time></trkpt><trkpt lat="44.842727550862094" lon="9.515783038745377"><ele>322.33333333333337</ele><time>2026-04-18T16:40:05Z</time></trkpt><trkpt lat="44.84276523959496" lon="9.515889373160194"><ele>319.6666666666667</ele><time>2026-04-18T16:40:06Z</time></trkpt><trkpt lat="44.84279853126551" lon="9.515994384106367"><ele>317.0</ele><time>2026-04-18T16:40:07Z</time></trkpt><trkpt lat="44.84284112317333" lon="9.516098726478088"><ele>317.0</ele><time>2026-04-18T16:40:08Z</time></trkpt><trkpt lat="44.84290168632103" lon="9.516191061042159"><ele>317.0</ele><time>2026-04-18T16:40:09Z</time></trkpt><trkpt lat="44.84296458826101" lon="9.516288137036534"><ele>317.0</ele><time>2026-04-18T16:40:10Z</time></trkpt><trkpt lat="44.84305600626699" lon="9.516340220856431"><ele>317.0</ele><time>2026-04-18T16:40:11Z</time></trkpt><trkpt lat="44.84313711852286" lon="9.516405437847004"><ele>317.0</ele><time>2026-04-18T16:40:12Z</time></trkpt><trkpt lat="44.84321366716896" lon="9.51647497573609"><ele>314.1666666666667</ele><time>2026-04-18T16:40:13Z</time></trkpt><trkpt lat="44.84328952411847" lon="9.516544246163646"><ele>311.33333333333337</ele><time>2026-04-18T16:40:14Z</time></trkpt><trkpt lat="44.8433620858444" lon="9.51660854571434"><ele>308.5</ele><time>2026-04-18T16:40:15Z</time></trkpt><trkpt lat="44.843431176394766" lon="9.516668978636764"><ele>305.6666666666667</ele><time>2026-04-18T16:40:16Z</time></trkpt><trkpt lat="44.843490247517096" lon="9.51675342967548"><ele>302.8333333333333</ele><time>2026-04-18T16:40:17Z</time></trkpt><trkpt lat="44.84356288599449" lon="9.516824727916092"><ele>300.0</ele><time>2026-04-18T16:40:18Z</time></trkpt><trkpt lat="44.843634896025016" lon="9.516895653080358"><ele>300.0</ele><time>2026-04-18T16:40:19Z</time></trkpt><trkpt lat="44.843711840830245" lon="9.516945030813503"><ele>300.0</ele><time>2026-04-18T16:40:20Z</time></trkpt><trkpt lat="44.84377557753768" lon="9.517010692831438"><ele>300.0</ele><time>2026-04-18T16:40:21Z</time></trkpt><trkpt lat="44.84382790258409" lon="9.517092200370389"><ele>300.0</ele><time>2026-04-18T16:40:22Z</time></trkpt><trkpt lat="44.843883087796506" lon="9.51715761843314"><ele>300.0</ele><time>2026-04-18T16:40:23Z</time></trkpt><trkpt lat="44.84392843336619" lon="9.517225603241437"><ele>300.0</ele><time>2026-04-18T16:40:24Z</time></trkpt><trkpt lat="44.84401334921638" lon="9.517352819182795"><ele>298.1666666666667</ele><time>2026-04-18T16:40:26Z</time></trkpt><trkpt lat="44.84409814138681" lon="9.517467717310245"><ele>296.3333333333333</ele><time>2026-04-18T16:40:28Z</time></trkpt><trkpt lat="44.84419923718142" lon="9.517515173725773"><ele>294.5</ele><time>2026-04-18T16:40:30Z</time></trkpt><trkpt lat="44.84426002857068" lon="9.51754020288021"><ele>292.66666666666663</ele><time>2026-04-18T16:40:31Z</time></trkpt><trkpt lat="44.84433087588015" lon="9.517531192118502"><ele>290.8333333333333</ele><time>2026-04-18T16:40:32Z</time></trkpt><trkpt lat="44.844400603994146" lon="9.517493376978882"><ele>289.0</ele><time>2026-04-18T16:40:33Z</time></trkpt><trkpt lat="44.844476852262" lon="9.517491949723198"><ele>289.0</ele><time>2026-04-18T16:40:34Z</time></trkpt><trkpt lat="44.8445504107541" lon="9.517472102509114"><ele>289.0</ele><time>2026-04-18T16:40:35Z</time></trkpt><trkpt lat="44.844627744071005" lon="9.517452426339178"><ele>289.0</ele><time>2026-04-18T16:40:36Z</time></trkpt><trkpt lat="44.8447054344839" lon="9.517438113327884"><ele>289.0</ele><time>2026-04-18T16:40:37Z</time></trkpt><trkpt lat="44.844782791770335" lon="9.517436880131216"><ele>289.0</ele><time>2026-04-18T16:40:38Z</time></trkpt><trkpt lat="44.8448564806213" lon="9.517461647262367"><ele>289.0</ele><time>2026-04-18T16:40:39Z</time></trkpt><trkpt lat="44.844931892587304" lon="9.517514588770776"><ele>289.0</ele><time>2026-04-18T16:40:40Z</time></trkpt><trkpt lat="44.84500808980355" lon="9.51757601454776"><ele>289.0</ele><time>2026-04-18T16:40:41Z</time></trkpt><trkpt lat="44.84510139011887" lon="9.5176202544514"><ele>289.0</ele><time>2026-04-18T16:40:42Z</time></trkpt><trkpt lat="44.84519167915751" lon="9.517676969586057"><ele>289.0</ele><time>2026-04-18T16:40:43Z</time></trkpt><trkpt lat="44.845285814392895" lon="9.517725018467242"><ele>289.0</ele><time>2026-04-18T16:40:44Z</time></trkpt><trkpt lat="44.84537589484337" lon="9.517790213443954"><ele>287.2</ele><time>2026-04-18T16:40:45Z</time></trkpt><trkpt lat="44.84546963521575" lon="9.517827885369819"><ele>285.4</ele><time>2026-04-18T16:40:46Z</time></trkpt><trkpt lat="44.84556399210373" lon="9.51787189885735"><ele>283.6</ele><time>2026-04-18T16:40:47Z</time></trkpt><trkpt lat="44.84565888282201" lon="9.517922085258368"><ele>281.8</ele><time>2026-04-18T16:40:48Z</time></trkpt><trkpt lat="44.84575150257419" lon="9.517984978232615"><ele>280.0</ele><time>2026-04-18T16:40:49Z</time></trkpt><trkpt lat="44.845846865337094" lon="9.518054976702285"><ele>280.0</ele><time>2026-04-18T16:40:50Z</time></trkpt><trkpt lat="44.84594239502555" lon="9.518127911755972"><ele>280.0</ele><time>2026-04-18T16:40:51Z</time></trkpt><trkpt lat="44.84603736520295" lon="9.518200303665708"><ele>280.0</ele><time>2026-04-18T16:40:52Z</time></trkpt><trkpt lat="44.846132217647046" lon="9.518270000961241"><ele>280.0</ele><time>2026-04-18T16:40:53Z</time></trkpt><trkpt lat="44.84622345035606" lon="9.518330109456809"><ele>280.0</ele><time>2026-04-18T16:40:54Z</time></trkpt><trkpt lat="44.8463114284089" lon="9.518384378180903"><ele>282.8</ele><time>2026-04-18T16:40:55Z</time></trkpt><trkpt lat="44.84640158216412" lon="9.51844533783862"><ele>285.6</ele><time>2026-04-18T16:40:56Z</time></trkpt><trkpt lat="44.846492256039944" lon="9.518492516935988"><ele>288.4</ele><time>2026-04-18T16:40:57Z</time></trkpt><trkpt lat="44.84657375535847" lon="9.518547494279392"><ele>291.2</ele><time>2026-04-18T16:40:58Z</time></trkpt><trkpt lat="44.84665507105014" lon="9.518592606505221"><ele>294.0</ele><time>2026-04-18T16:40:59Z</time></trkpt><trkpt lat="44.84673580284527" lon="9.518628009127342"><ele>293.6666666666667</ele><time>2026-04-18T16:41:00Z</time></trkpt><trkpt lat="44.84681544535375" lon="9.518637976222177"><ele>293.3333333333333</ele><time>2026-04-18T16:41:01Z</time></trkpt><trkpt lat="44.84689455861166" lon="9.518627053733121"><ele>293.0</ele><time>2026-04-18T16:41:02Z</time></trkpt><trkpt lat="44.84697240221015" lon="9.51860160856817"><ele>292.66666666666663</ele><time>2026-04-18T16:41:03Z</time></trkpt><trkpt lat="44.847049039860494" lon="9.518572375126533"><ele>292.3333333333333</ele><time>2026-04-18T16:41:04Z</time></trkpt><trkpt lat="44.84712538826036" lon="9.518535056179998"><ele>292.0</ele><time>2026-04-18T16:41:05Z</time></trkpt><trkpt lat="44.847205016956075" lon="9.51849605068314"><ele>292.0</ele><time>2026-04-18T16:41:06Z</time></trkpt><trkpt lat="44.84728921337309" lon="9.518483924025064"><ele>292.0</ele><time>2026-04-18T16:41:07Z</time></trkpt><trkpt lat="44.847376370597736" lon="9.518526074432762"><ele>292.0</ele><time>2026-04-18T16:41:08Z</time></trkpt><trkpt lat="44.84744005958485" lon="9.51862774309494"><ele>292.0</ele><time>2026-04-18T16:41:09Z</time></trkpt><trkpt lat="44.84750194180363" lon="9.518711648891188"><ele>292.0</ele><time>2026-04-18T16:41:10Z</time></trkpt><trkpt lat="44.847552284975954" lon="9.518802726755492"><ele>292.0</ele><time>2026-04-18T16:41:11Z</time></trkpt><trkpt lat="44.84762007353819" lon="9.518860658895326"><ele>288.66666666666663</ele><time>2026-04-18T16:41:12Z</time></trkpt><trkpt lat="44.847702539354856" lon="9.51887366203138"><ele>285.3333333333333</ele><time>2026-04-18T16:41:13Z</time></trkpt><trkpt lat="44.84779225962202" lon="9.51886767909241"><ele>282.0</ele><time>2026-04-18T16:41:14Z</time></trkpt><trkpt lat="44.84788221863903" lon="9.518862998760595"><ele>278.6666666666667</ele><time>2026-04-18T16:41:15Z</time></trkpt><trkpt lat="44.84795618324931" lon="9.518920192823677"><ele>275.33333333333337</ele><time>2026-04-18T16:41:16Z</time></trkpt><trkpt lat="44.84801601362944" lon="9.51901636017123"><ele>272.0</ele><time>2026-04-18T16:41:17Z</time></trkpt><trkpt lat="44.84802266907489" lon="9.519144248345485"><ele>272.0</ele><time>2026-04-18T16:41:18Z</time></trkpt><trkpt lat="44.84805051498848" lon="9.51925292591452"><ele>272.0</ele><time>2026-04-18T16:41:19Z</time></trkpt><trkpt lat="44.84804965528772" lon="9.519372630255093"><ele>272.0</ele><time>2026-04-18T16:41:20Z</time></trkpt><trkpt lat="44.84805909484314" lon="9.519491148991369"><ele>272.0</ele><time>2026-04-18T16:41:21Z</time></trkpt><trkpt lat="44.84808804605161" lon="9.519599378310977"><ele>272.0</ele><time>2026-04-18T16:41:22Z</time></trkpt><trkpt lat="44.8481318762107" lon="9.519707951014054"><ele>272.0</ele><time>2026-04-18T16:41:23Z</time></trkpt><trkpt lat="44.848184885927736" lon="9.519821132557645"><ele>269.4</ele><time>2026-04-18T16:41:24Z</time></trkpt><trkpt lat="44.84824040997317" lon="9.519940351769494"><ele>266.79999999999995</ele><time>2026-04-18T16:41:25Z</time></trkpt><trkpt lat="44.848295608445056" lon="9.520066056858845"><ele>264.2</ele><time>2026-04-18T16:41:26Z</time></trkpt><trkpt lat="44.848348161913755" lon="9.520193595851985"><ele>261.59999999999997</ele><time>2026-04-18T16:41:27Z</time></trkpt><trkpt lat="44.84839800130338" lon="9.520320628214987"><ele>259.0</ele><time>2026-04-18T16:41:28Z</time></trkpt><trkpt lat="44.848440949687586" lon="9.52044957832964"><ele>259.8</ele><time>2026-04-18T16:41:29Z</time></trkpt><trkpt lat="44.84847784637908" lon="9.520574908202516"><ele>260.59999999999997</ele><time>2026-04-18T16:41:30.001Z</time></trkpt><trkpt lat="44.84851039503101" lon="9.52069910563763"><ele>261.4</ele><time>2026-04-18T16:41:31.001Z</time></trkpt><trkpt lat="44.848528195638885" lon="9.520826033709023"><ele>262.2</ele><time>2026-04-18T16:41:32.001Z</time></trkpt><trkpt lat="44.84851014885453" lon="9.520958157972359"><ele>263.0</ele><time>2026-04-18T16:41:33.001Z</time></trkpt><trkpt lat="44.84849688963899" lon="9.521086016397547"><ele>263.0</ele><time>2026-04-18T16:41:34.001Z</time></trkpt><trkpt lat="44.848496731154924" lon="9.52122016959345"><ele>263.0</ele><time>2026-04-18T16:41:35.001Z</time></trkpt><trkpt lat="44.848478129851564" lon="9.521351398478018"><ele>263.0</ele><time>2026-04-18T16:41:36.001Z</time></trkpt><trkpt lat="44.84846483214176" lon="9.521475361741485"><ele>263.0</ele><time>2026-04-18T16:41:37.001Z</time></trkpt><trkpt lat="44.84845035932849" lon="9.521585032408755"><ele>263.0</ele><time>2026-04-18T16:41:38.001Z</time></trkpt><trkpt lat="44.84845428713017" lon="9.521697096764546"><ele>263.0</ele><time>2026-04-18T16:41:39.001Z</time></trkpt><trkpt lat="44.848478693510714" lon="9.521813374169113"><ele>262.6</ele><time>2026-04-18T16:41:40.001Z</time></trkpt><trkpt lat="44.84851552975449" lon="9.52193282734405"><ele>262.20000000000005</ele><time>2026-04-18T16:41:41.001Z</time></trkpt><trkpt lat="44.84855618722142" lon="9.52205427490154"><ele>261.8</ele><time>2026-04-18T16:41:42.001Z</time></trkpt><trkpt lat="44.848590585307534" lon="9.522180106161194"><ele>261.40000000000003</ele><time>2026-04-18T16:41:43.001Z</time></trkpt><trkpt lat="44.84862869842344" lon="9.522307433605818"><ele>261.0</ele><time>2026-04-18T16:41:44.001Z</time></trkpt><trkpt lat="44.84867505510001" lon="9.522430489339268"><ele>259.2</ele><time>2026-04-18T16:41:45.001Z</time></trkpt><trkpt lat="44.84871038504046" lon="9.52255880528423"><ele>257.40000000000003</ele><time>2026-04-18T16:41:46.001Z</time></trkpt><trkpt lat="44.848747832515016" lon="9.522681945188818"><ele>255.6</ele><time>2026-04-18T16:41:47.001Z</time></trkpt><trkpt lat="44.84878554873952" lon="9.522803400757866"><ele>253.8</ele><time>2026-04-18T16:41:48.001Z</time></trkpt><trkpt lat="44.848807395212695" lon="9.52294054225918"><ele>252.0</ele><time>2026-04-18T16:41:49.001Z</time></trkpt><trkpt lat="44.84883787786415" lon="9.523072394394843"><ele>249.33333333333334</ele><time>2026-04-18T16:41:50.001Z</time></trkpt><trkpt lat="44.84888755613954" lon="9.523180582797696"><ele>246.66666666666669</ele><time>2026-04-18T16:41:51.001Z</time></trkpt><trkpt lat="44.84894047381497" lon="9.523267218673935"><ele>244.0</ele><time>2026-04-18T16:41:52.001Z</time></trkpt><trkpt lat="44.848969901118274" lon="9.52334646883816"><ele>241.33333333333334</ele><time>2026-04-18T16:41:53.001Z</time></trkpt><trkpt lat="44.848995714363" lon="9.523456887694389"><ele>238.66666666666669</ele><time>2026-04-18T16:41:55.001Z</time></trkpt><trkpt lat="44.84887298511655" lon="9.523470253019697"><ele>236.0</ele><time>2026-04-18T16:41:57.001Z</time></trkpt><trkpt lat="44.84883425543113" lon="9.523369464559902"><ele>236.00000000000003</ele><time>2026-04-18T16:41:58.001Z</time></trkpt><trkpt lat="44.848773318623444" lon="9.523300114262556"><ele>236.0</ele><time>2026-04-18T16:41:59.001Z</time></trkpt><trkpt lat="44.8486950294567" lon="9.523234233307395"><ele>236.0</ele><time>2026-04-18T16:42:00.001Z</time></trkpt><trkpt lat="44.84861894611239" lon="9.52315150040503"><ele>236.0</ele><time>2026-04-18T16:42:01.001Z</time></trkpt><trkpt lat="44.84853851300009" lon="9.523095515145506"><ele>236.00000000000003</ele><time>2026-04-18T16:42:02.001Z</time></trkpt><trkpt lat="44.848469720576695" lon="9.523050821312642"><ele>236.0</ele><time>2026-04-18T16:42:03.001Z</time></trkpt><trkpt lat="44.84837519513678" lon="9.522972234211037"><ele>233.00000000000003</ele><time>2026-04-18T16:42:05.001Z</time></trkpt><trkpt lat="44.84829188133148" lon="9.522939060472368"><ele>230.0</ele><time>2026-04-18T16:42:07.001Z</time></trkpt><trkpt lat="44.84821617734043" lon="9.523020122398698"><ele>227.0</ele><time>2026-04-18T16:42:09Z</time></trkpt><trkpt lat="44.84824105214616" lon="9.52311393922858"><ele>224.0</ele><time>2026-04-18T16:42:10Z</time></trkpt><trkpt lat="44.848330594135206" lon="9.523219222273992"><ele>221.00000000000003</ele><time>2026-04-18T16:42:12Z</time></trkpt><trkpt lat="44.84839162767079" lon="9.523269382530401"><ele>218.0</ele><time>2026-04-18T16:42:13Z</time></trkpt><trkpt lat="44.848445613912254" lon="9.523360189526688"><ele>217.4</ele><time>2026-04-18T16:42:14Z</time></trkpt><trkpt lat="44.84850942080642" lon="9.523454005648414"><ele>216.8</ele><time>2026-04-18T16:42:15Z</time></trkpt><trkpt lat="44.84857310465204" lon="9.52355538337275"><ele>216.2</ele><time>2026-04-18T16:42:16Z</time></trkpt><trkpt lat="44.84863899102793" lon="9.523637960612731"><ele>215.6</ele><time>2026-04-18T16:42:17Z</time></trkpt><trkpt lat="44.848691371997425" lon="9.523743109324665"><ele>215.0</ele><time>2026-04-18T16:42:18Z</time></trkpt><trkpt lat="44.8487455674807" lon="9.523846085580203"><ele>215.0</ele><time>2026-04-18T16:42:19Z</time></trkpt><trkpt lat="44.84880591619542" lon="9.523942721713476"><ele>215.0</ele><time>2026-04-18T16:42:20Z</time></trkpt><trkpt lat="44.84887564909199" lon="9.524032745399783"><ele>215.0</ele><time>2026-04-18T16:42:21Z</time></trkpt><trkpt lat="44.84894746702038" lon="9.524112132500324"><ele>215.0</ele><time>2026-04-18T16:42:22Z</time></trkpt><trkpt lat="44.849025726987314" lon="9.524183912513834"><ele>215.0</ele><time>2026-04-18T16:42:23Z</time></trkpt><trkpt lat="44.84910411075839" lon="9.52423606387626"><ele>215.0</ele><time>2026-04-18T16:42:24Z</time></trkpt><trkpt lat="44.84918790706866" lon="9.52427704205688"><ele>215.0</ele><time>2026-04-18T16:42:25Z</time></trkpt><trkpt lat="44.84927733237345" lon="9.524303273667195"><ele>215.0</ele><time>2026-04-18T16:42:26Z</time></trkpt><trkpt lat="44.84937151552524" lon="9.524340378451097"><ele>215.0</ele><time>2026-04-18T16:42:27Z</time></trkpt><trkpt lat="44.849464337835215" lon="9.524383942945986"><ele>215.0</ele><time>2026-04-18T16:42:28Z</time></trkpt><trkpt lat="44.84955831985737" lon="9.524431385601112"><ele>212.6</ele><time>2026-04-18T16:42:29Z</time></trkpt><trkpt lat="44.849649205008326" lon="9.524492842059601"><ele>210.2</ele><time>2026-04-18T16:42:30Z</time></trkpt><trkpt lat="44.849737466163674" lon="9.524553731274368"><ele>207.8</ele><time>2026-04-18T16:42:31Z</time></trkpt><trkpt lat="44.84982942072627" lon="9.524609669030763"><ele>205.4</ele><time>2026-04-18T16:42:32Z</time></trkpt><trkpt lat="44.849909139834224" lon="9.524678019579381"><ele>203.0</ele><time>2026-04-18T16:42:33Z</time></trkpt><trkpt lat="44.849973690802365" lon="9.524772873430479"><ele>200.60000000000002</ele><time>2026-04-18T16:42:34Z</time></trkpt><trkpt lat="44.85001337941967" lon="9.524888236155636"><ele>198.20000000000002</ele><time>2026-04-18T16:42:35Z</time></trkpt><trkpt lat="44.850013750193305" lon="9.52501379555036"><ele>195.8</ele><time>2026-04-18T16:42:36Z</time></trkpt><trkpt lat="44.849978266054485" lon="9.525146789483152"><ele>193.4</ele><time>2026-04-18T16:42:37Z</time></trkpt><trkpt lat="44.84996086907048" lon="9.525308150803802"><ele>191.0</ele><time>2026-04-18T16:42:38Z</time></trkpt><trkpt lat="44.84992976678099" lon="9.525461531185679"><ele>190.20000000000002</ele><time>2026-04-18T16:42:39Z</time></trkpt><trkpt lat="44.84990317289514" lon="9.525618365596184"><ele>189.4</ele><time>2026-04-18T16:42:40Z</time></trkpt><trkpt lat="44.84987297880168" lon="9.525770871478597"><ele>188.6</ele><time>2026-04-18T16:42:41Z</time></trkpt><trkpt lat="44.84984225173871" lon="9.52590548325967"><ele>187.8</ele><time>2026-04-18T16:42:42Z</time></trkpt><trkpt lat="44.84981783601054" lon="9.52603147688899"><ele>187.0</ele><time>2026-04-18T16:42:43Z</time></trkpt><trkpt lat="44.849793688943" lon="9.52615116342317"><ele>186.6</ele><time>2026-04-18T16:42:44Z</time></trkpt><trkpt lat="44.849770877905584" lon="9.526268271429927"><ele>186.2</ele><time>2026-04-18T16:42:45Z</time></trkpt><trkpt lat="44.84975946822527" lon="9.526401220421823"><ele>185.8</ele><time>2026-04-18T16:42:46Z</time></trkpt><trkpt lat="44.84975897760568" lon="9.526544148778907"><ele>185.4</ele><time>2026-04-18T16:42:47Z</time></trkpt><trkpt lat="44.84976269542562" lon="9.526694361769609"><ele>185.0</ele><time>2026-04-18T16:42:48Z</time></trkpt><trkpt lat="44.84976088891893" lon="9.526851067268849"><ele>185.0</ele><time>2026-04-18T16:42:49Z</time></trkpt><trkpt lat="44.849757374364245" lon="9.527011750212292"><ele>185.0</ele><time>2026-04-18T16:42:50Z</time></trkpt><trkpt lat="44.849753815760494" lon="9.527183818625623"><ele>185.0</ele><time>2026-04-18T16:42:51Z</time></trkpt><trkpt lat="44.84974282537793" lon="9.52736339469275"><ele>185.0</ele><time>2026-04-18T16:42:52Z</time></trkpt><trkpt lat="44.84971164230923" lon="9.527549480732828"><ele>184.75</ele><time>2026-04-18T16:42:53Z</time></trkpt><trkpt lat="44.84968068695115" lon="9.527733568475114"><ele>184.5</ele><time>2026-04-18T16:42:54Z</time></trkpt><trkpt lat="44.849735549393976" lon="9.527924649968142"><ele>184.25</ele><time>2026-04-18T16:42:55Z</time></trkpt><trkpt lat="44.84973973205426" lon="9.52808517186141"><ele>184.0</ele><time>2026-04-18T16:42:56Z</time></trkpt><trkpt lat="44.849747579064775" lon="9.528232511448463"><ele>183.79999999999998</ele><time>2026-04-18T16:42:57Z</time></trkpt><trkpt lat="44.84975338324004" lon="9.528366657147592"><ele>183.6</ele><time>2026-04-18T16:42:58Z</time></trkpt><trkpt lat="44.84976302571728" lon="9.528498212227783"><ele>183.4</ele><time>2026-04-18T16:42:59Z</time></trkpt><trkpt lat="44.84976901766636" lon="9.52863786521081"><ele>183.2</ele><time>2026-04-18T16:43:00Z</time></trkpt><trkpt lat="44.84978204330086" lon="9.528780274037425"><ele>183.0</ele><time>2026-04-18T16:43:01Z</time></trkpt><trkpt lat="44.84979503998911" lon="9.528938292758049"><ele>182.25</ele><time>2026-04-18T16:43:02Z</time></trkpt><trkpt lat="44.84983499637254" lon="9.529099948233595"><ele>181.5</ele><time>2026-04-18T16:43:03Z</time></trkpt><trkpt lat="44.84987983317912" lon="9.529260238066442"><ele>180.75</ele><time>2026-04-18T16:43:04Z</time></trkpt><trkpt lat="44.84993267316708" lon="9.529422765957692"><ele>180.0</ele><time>2026-04-18T16:43:05Z</time></trkpt><trkpt lat="44.84998945411313" lon="9.529589316452665"><ele>179.75</ele><time>2026-04-18T16:43:06Z</time></trkpt><trkpt lat="44.850046990358784" lon="9.529766754505017"><ele>179.5</ele><time>2026-04-18T16:43:07Z</time></trkpt><trkpt lat="44.850102595855994" lon="9.529945599844611"><ele>179.25</ele><time>2026-04-18T16:43:08Z</time></trkpt><trkpt lat="44.850154834997944" lon="9.53010331568978"><ele>179.0</ele><time>2026-04-18T16:43:09Z</time></trkpt><trkpt lat="44.85021815766566" lon="9.53024185926097"><ele>178.6</ele><time>2026-04-18T16:43:10Z</time></trkpt><trkpt lat="44.85026119622151" lon="9.530380544786746"><ele>178.2</ele><time>2026-04-18T16:43:11Z</time></trkpt><trkpt lat="44.850325718075666" lon="9.530475003973201"><ele>177.79999999999998</ele><time>2026-04-18T16:43:12Z</time></trkpt><trkpt lat="44.85041081594961" lon="9.530540188134895"><ele>177.39999999999998</ele><time>2026-04-18T16:43:13Z</time></trkpt><trkpt lat="44.85051605050085" lon="9.530567452269699"><ele>177.0</ele><time>2026-04-18T16:43:14Z</time></trkpt><trkpt lat="44.85063066183797" lon="9.530564798477352"><ele>176.8</ele><time>2026-04-18T16:43:15Z</time></trkpt><trkpt lat="44.85074449001345" lon="9.530564585438285"><ele>176.6</ele><time>2026-04-18T16:43:16Z</time></trkpt><trkpt lat="44.85085799018009" lon="9.530577011144963"><ele>176.4</ele><time>2026-04-18T16:43:17Z</time></trkpt><trkpt lat="44.85096109441638" lon="9.530598850551128"><ele>176.20000000000002</ele><time>2026-04-18T16:43:18Z</time></trkpt><trkpt lat="44.85105212412795" lon="9.53061310069166"><ele>176.0</ele><time>2026-04-18T16:43:19Z</time></trkpt><trkpt lat="44.85114179574464" lon="9.53064244458933"><ele>176.0</ele><time>2026-04-18T16:43:20Z</time></trkpt><trkpt lat="44.851222952893465" lon="9.530695430206677"><ele>176.0</ele><time>2026-04-18T16:43:21Z</time></trkpt><trkpt lat="44.85128107055606" lon="9.530794215404367"><ele>176.0</ele><time>2026-04-18T16:43:22Z</time></trkpt><trkpt lat="44.85129428642284" lon="9.530955012789498"><ele>176.0</ele><time>2026-04-18T16:43:23Z</time></trkpt><trkpt lat="44.85128412506414" lon="9.531132846408758"><ele>176.0</ele><time>2026-04-18T16:43:24Z</time></trkpt><trkpt lat="44.85128285026666" lon="9.531341082316473"><ele>175.33333333333331</ele><time>2026-04-18T16:43:25Z</time></trkpt><trkpt lat="44.8512961426324" lon="9.531566105381179"><ele>174.66666666666666</ele><time>2026-04-18T16:43:26Z</time></trkpt><trkpt lat="44.85128714872774" lon="9.531794647794445"><ele>174.0</ele><time>2026-04-18T16:43:27Z</time></trkpt><trkpt lat="44.8512895034074" lon="9.531995739446256"><ele>173.79999999999998</ele><time>2026-04-18T16:43:28Z</time></trkpt><trkpt lat="44.85128961996661" lon="9.532173734948634"><ele>173.6</ele><time>2026-04-18T16:43:29Z</time></trkpt><trkpt lat="44.85128982869655" lon="9.532337657965254"><ele>173.4</ele><time>2026-04-18T16:43:30Z</time></trkpt><trkpt lat="44.85128929455444" lon="9.532490672594808"><ele>173.2</ele><time>2026-04-18T16:43:31Z</time></trkpt><trkpt lat="44.85130047323962" lon="9.53262610925945"><ele>173.0</ele><time>2026-04-18T16:43:32Z</time></trkpt><trkpt lat="44.85133686498635" lon="9.532748369156678"><ele>173.0</ele><time>2026-04-18T16:43:33Z</time></trkpt><trkpt lat="44.85140987438247" lon="9.532856638238723"><ele>173.0</ele><time>2026-04-18T16:43:34Z</time></trkpt><trkpt lat="44.851505507449986" lon="9.532924709218237"><ele>173.0</ele><time>2026-04-18T16:43:35Z</time></trkpt><trkpt lat="44.85161920284612" lon="9.532938466576262"><ele>173.0</ele><time>2026-04-18T16:43:36.001Z</time></trkpt><trkpt lat="44.85173565475484" lon="9.532952155720574"><ele>173.0</ele><time>2026-04-18T16:43:37.001Z</time></trkpt><trkpt lat="44.85184540406633" lon="9.532970735078788"><ele>172.66666666666666</ele><time>2026-04-18T16:43:38.001Z</time></trkpt><trkpt lat="44.85194954190336" lon="9.532972936459485"><ele>172.33333333333331</ele><time>2026-04-18T16:43:39.001Z</time></trkpt><trkpt lat="44.85204121736259" lon="9.532997584172081"><ele>172.0</ele><time>2026-04-18T16:43:40.001Z</time></trkpt><trkpt lat="44.8521228762216" lon="9.533039949747657"><ele>171.66666666666666</ele><time>2026-04-18T16:43:41.001Z</time></trkpt><trkpt lat="44.852199244219406" lon="9.533059536009974"><ele>171.33333333333334</ele><time>2026-04-18T16:43:42.001Z</time></trkpt><trkpt lat="44.85227059043837" lon="9.533077648821983"><ele>171.0</ele><time>2026-04-18T16:43:43.001Z</time></trkpt><trkpt lat="44.852338720911234" lon="9.533094572094445"><ele>170.99999999999997</ele><time>2026-04-18T16:43:44.001Z</time></trkpt><trkpt lat="44.852414197250496" lon="9.533104130936612"><ele>171.0</ele><time>2026-04-18T16:43:45.001Z</time></trkpt><trkpt lat="44.85248977349916" lon="9.533118299539362"><ele>171.0</ele><time>2026-04-18T16:43:46.001Z</time></trkpt><trkpt lat="44.85256473209046" lon="9.533137476619597"><ele>171.0</ele><time>2026-04-18T16:43:47.001Z</time></trkpt><trkpt lat="44.852629168677666" lon="9.533166718748122"><ele>171.0</ele><time>2026-04-18T16:43:48.001Z</time></trkpt><trkpt lat="44.85268707283353" lon="9.533202104207575"><ele>170.99999999999997</ele><time>2026-04-18T16:43:49.001Z</time></trkpt><trkpt lat="44.852743218042114" lon="9.533251046045065"><ele>171.0</ele><time>2026-04-18T16:43:50.001Z</time></trkpt><trkpt lat="44.85280688849054" lon="9.53330031689894"><ele>171.4</ele><time>2026-04-18T16:43:51.001Z</time></trkpt><trkpt lat="44.852880791373785" lon="9.5333430753328"><ele>171.8</ele><time>2026-04-18T16:43:52.001Z</time></trkpt><trkpt lat="44.852965906835145" lon="9.533375298899427"><ele>172.20000000000002</ele><time>2026-04-18T16:43:53.001Z</time></trkpt><trkpt lat="44.85305738324864" lon="9.533405574351494"><ele>172.60000000000002</ele><time>2026-04-18T16:43:54.001Z</time></trkpt><trkpt lat="44.85315184086644" lon="9.533430296930659"><ele>173.0</ele><time>2026-04-18T16:43:55.001Z</time></trkpt><trkpt lat="44.85324824144555" lon="9.533459024226145"><ele>173.0</ele><time>2026-04-18T16:43:56.001Z</time></trkpt><trkpt lat="44.8533414410582" lon="9.533483214153375"><ele>173.0</ele><time>2026-04-18T16:43:57.001Z</time></trkpt><trkpt lat="44.85342708889001" lon="9.53350881429469"><ele>173.0</ele><time>2026-04-18T16:43:58.001Z</time></trkpt><trkpt lat="44.85351479677819" lon="9.533531345591143"><ele>173.0</ele><time>2026-04-18T16:43:59.001Z</time></trkpt><trkpt lat="44.85360402059502" lon="9.533567791020028"><ele>173.0</ele><time>2026-04-18T16:44:00.001Z</time></trkpt><trkpt lat="44.853695611123946" lon="9.533571267363712"><ele>172.8</ele><time>2026-04-18T16:44:01.001Z</time></trkpt><trkpt lat="44.85378669900226" lon="9.5335999463458"><ele>172.60000000000002</ele><time>2026-04-18T16:44:02.001Z</time></trkpt><trkpt lat="44.85388117675901" lon="9.533631219325946"><ele>172.39999999999998</ele><time>2026-04-18T16:44:03.001Z</time></trkpt><trkpt lat="44.853974925871555" lon="9.53366276240861"><ele>172.2</ele><time>2026-04-18T16:44:04.001Z</time></trkpt><trkpt lat="44.85406699042603" lon="9.533697677933091"><ele>172.0</ele><time>2026-04-18T16:44:05.001Z</time></trkpt><trkpt lat="44.85415071174301" lon="9.533724703859537"><ele>171.39999999999998</ele><time>2026-04-18T16:44:06.001Z</time></trkpt><trkpt lat="44.85423801164733" lon="9.53374132476124"><ele>170.79999999999998</ele><time>2026-04-18T16:44:07.001Z</time></trkpt><trkpt lat="44.85433019639989" lon="9.533785602889145"><ele>170.2</ele><time>2026-04-18T16:44:08.001Z</time></trkpt><trkpt lat="44.85442977010121" lon="9.533800107852072"><ele>169.6</ele><time>2026-04-18T16:44:09.001Z</time></trkpt><trkpt lat="44.85452834243358" lon="9.533782927194977"><ele>169.0</ele><time>2026-04-18T16:44:10.001Z</time></trkpt><trkpt lat="44.85462443210703" lon="9.533778187398035"><ele>168.79999999999998</ele><time>2026-04-18T16:44:11.001Z</time></trkpt><trkpt lat="44.85471894809231" lon="9.533766393312263"><ele>168.6</ele><time>2026-04-18T16:44:12.001Z</time></trkpt><trkpt lat="44.854813816227285" lon="9.533724696830449"><ele>168.4</ele><time>2026-04-18T16:44:13.001Z</time></trkpt><trkpt lat="44.85490645510426" lon="9.533674173283876"><ele>168.2</ele><time>2026-04-18T16:44:14.001Z</time></trkpt><trkpt lat="44.854993869688755" lon="9.533605428067599"><ele>168.0</ele><time>2026-04-18T16:44:15.001Z</time></trkpt><trkpt lat="44.855081418844264" lon="9.533541170484545"><ele>171.2</ele><time>2026-04-18T16:44:16.001Z</time></trkpt><trkpt lat="44.85517403696795" lon="9.53349047589443"><ele>174.4</ele><time>2026-04-18T16:44:17.001Z</time></trkpt><trkpt lat="44.85526879879128" lon="9.533449586050166"><ele>177.6</ele><time>2026-04-18T16:44:18.001Z</time></trkpt><trkpt lat="44.855368618406466" lon="9.533452403019403"><ele>180.79999999999998</ele><time>2026-04-18T16:44:19.001Z</time></trkpt><trkpt lat="44.855469291653776" lon="9.53344654248663"><ele>184.0</ele><time>2026-04-18T16:44:20.001Z</time></trkpt><trkpt lat="44.85557169093935" lon="9.533420835710235"><ele>184.0</ele><time>2026-04-18T16:44:21.001Z</time></trkpt><trkpt lat="44.85566963931624" lon="9.533412971221153"><ele>184.0</ele><time>2026-04-18T16:44:22.001Z</time></trkpt><trkpt lat="44.8557620990857" lon="9.533423128011043"><ele>184.0</ele><time>2026-04-18T16:44:23.001Z</time></trkpt><trkpt lat="44.85584029946343" lon="9.533506473633706"><ele>184.0</ele><time>2026-04-18T16:44:24.001Z</time></trkpt><trkpt lat="44.85592392985695" lon="9.533569698640829"><ele>184.0</ele><time>2026-04-18T16:44:25Z</time></trkpt><trkpt lat="44.856006891182155" lon="9.533596072534984"><ele>182.6</ele><time>2026-04-18T16:44:26Z</time></trkpt><trkpt lat="44.85608657496549" lon="9.53362848558161"><ele>181.2</ele><time>2026-04-18T16:44:27Z</time></trkpt><trkpt lat="44.856188983387675" lon="9.533653183287518"><ele>179.79999999999998</ele><time>2026-04-18T16:44:28Z</time></trkpt><trkpt lat="44.85628981159627" lon="9.533715307658994"><ele>178.39999999999998</ele><time>2026-04-18T16:44:29Z</time></trkpt><trkpt lat="44.856378879387286" lon="9.533780086943693"><ele>177.0</ele><time>2026-04-18T16:44:30Z</time></trkpt><trkpt lat="44.85646605445329" lon="9.533844063081196"><ele>177.0</ele><time>2026-04-18T16:44:31Z</time></trkpt><trkpt lat="44.85656091826779" lon="9.53389104831098"><ele>177.0</ele><time>2026-04-18T16:44:32Z</time></trkpt><trkpt lat="44.85665992636496" lon="9.533952033150914"><ele>177.0</ele><time>2026-04-18T16:44:33Z</time></trkpt><trkpt lat="44.85675878237649" lon="9.534038772968273"><ele>177.0</ele><time>2026-04-18T16:44:34Z</time></trkpt><trkpt lat="44.85686868947127" lon="9.534108093332039"><ele>177.0</ele><time>2026-04-18T16:44:35Z</time></trkpt><trkpt lat="44.856978759310756" lon="9.534157841157812"><ele>177.6</ele><time>2026-04-18T16:44:36Z</time></trkpt><trkpt lat="44.85706663800124" lon="9.534251100000404"><ele>178.2</ele><time>2026-04-18T16:44:37Z</time></trkpt><trkpt lat="44.8571381749993" lon="9.53436268480154"><ele>178.8</ele><time>2026-04-18T16:44:38Z</time></trkpt><trkpt lat="44.85722023931846" lon="9.534462099667234"><ele>179.4</ele><time>2026-04-18T16:44:39Z</time></trkpt><trkpt lat="44.857306262452276" lon="9.534574309088327"><ele>180.0</ele><time>2026-04-18T16:44:40Z</time></trkpt><trkpt lat="44.85739103830535" lon="9.534695396454017"><ele>180.0</ele><time>2026-04-18T16:44:41Z</time></trkpt><trkpt lat="44.8574758924623" lon="9.534811153997842"><ele>180.0</ele><time>2026-04-18T16:44:42Z</time></trkpt><trkpt lat="44.85754798917597" lon="9.534937747564381"><ele>180.0</ele><time>2026-04-18T16:44:43Z</time></trkpt><trkpt lat="44.85764156866347" lon="9.53504598115261"><ele>180.0</ele><time>2026-04-18T16:44:44Z</time></trkpt><trkpt lat="44.85773022071982" lon="9.535156906343655"><ele>179.25</ele><time>2026-04-18T16:44:45Z</time></trkpt><trkpt lat="44.857827929655315" lon="9.535257647634674"><ele>178.5</ele><time>2026-04-18T16:44:46Z</time></trkpt><trkpt lat="44.85793712131166" lon="9.5353363480545"><ele>177.75</ele><time>2026-04-18T16:44:47Z</time></trkpt><trkpt lat="44.85805549918327" lon="9.535398105990232"><ele>177.0</ele><time>2026-04-18T16:44:48Z</time></trkpt><trkpt lat="44.858166163429644" lon="9.535462954184776"><ele>177.0</ele><time>2026-04-18T16:44:49Z</time></trkpt><trkpt lat="44.85826387866257" lon="9.535555768356277"><ele>177.0</ele><time>2026-04-18T16:44:50Z</time></trkpt><trkpt lat="44.858328160118624" lon="9.53569277500461"><ele>177.0</ele><time>2026-04-18T16:44:51Z</time></trkpt><trkpt lat="44.85840381831529" lon="9.53581182169045"><ele>177.0</ele><time>2026-04-18T16:44:52Z</time></trkpt><trkpt lat="44.858476651170214" lon="9.535925435320548"><ele>180.75</ele><time>2026-04-18T16:44:53Z</time></trkpt><trkpt lat="44.858574706883026" lon="9.536001487053309"><ele>184.5</ele><time>2026-04-18T16:44:54Z</time></trkpt><trkpt lat="44.858694009776244" lon="9.536050474060083"><ele>188.25</ele><time>2026-04-18T16:44:55Z</time></trkpt><trkpt lat="44.858809848810814" lon="9.536121485679812"><ele>192.0</ele><time>2026-04-18T16:44:56Z</time></trkpt><trkpt lat="44.85891575187173" lon="9.536173374077059"><ele>192.0</ele><time>2026-04-18T16:44:57Z</time></trkpt><trkpt lat="44.85900747427885" lon="9.536210005187884"><ele>192.0</ele><time>2026-04-18T16:44:58Z</time></trkpt><trkpt lat="44.85909853207784" lon="9.536218796063228"><ele>192.0</ele><time>2026-04-18T16:44:59Z</time></trkpt><trkpt lat="44.85918777303837" lon="9.53622878794492"><ele>192.0</ele><time>2026-04-18T16:45:00Z</time></trkpt><trkpt lat="44.85927736956706" lon="9.536210825733885"><ele>192.0</ele><time>2026-04-18T16:45:01Z</time></trkpt><trkpt lat="44.85938186953502" lon="9.536190934389506"><ele>192.0</ele><time>2026-04-18T16:45:02Z</time></trkpt><trkpt lat="44.859489574259726" lon="9.536190550214386"><ele>192.0</ele><time>2026-04-18T16:45:03Z</time></trkpt><trkpt lat="44.85960079589" lon="9.536231401603654"><ele>192.0</ele><time>2026-04-18T16:45:04Z</time></trkpt><trkpt lat="44.85971897280883" lon="9.536235320635692"><ele>192.0</ele><time>2026-04-18T16:45:05Z</time></trkpt><trkpt lat="44.85982922238359" lon="9.536297305075506"><ele>192.0</ele><time>2026-04-18T16:45:06Z</time></trkpt><trkpt lat="44.85994427970269" lon="9.536327304972136"><ele>192.0</ele><time>2026-04-18T16:45:07Z</time></trkpt><trkpt lat="44.860037412355325" lon="9.536397676729798"><ele>192.0</ele><time>2026-04-18T16:45:08Z</time></trkpt><trkpt lat="44.860100296792396" lon="9.53649584718665"><ele>192.0</ele><time>2026-04-18T16:45:09Z</time></trkpt><trkpt lat="44.8601069340707" lon="9.536624909614057"><ele>192.0</ele><time>2026-04-18T16:45:10Z</time></trkpt><trkpt lat="44.860120960616115" lon="9.53672748053231"><ele>194.39999999999998</ele><time>2026-04-18T16:45:11Z</time></trkpt><trkpt lat="44.86015768435839" lon="9.536818147263002"><ele>196.79999999999998</ele><time>2026-04-18T16:45:12Z</time></trkpt><trkpt lat="44.86018028602688" lon="9.536929947448215"><ele>199.2</ele><time>2026-04-18T16:45:13Z</time></trkpt><trkpt lat="44.8601940745856" lon="9.537063271515569"><ele>201.6</ele><time>2026-04-18T16:45:14Z</time></trkpt><trkpt lat="44.86020427990011" lon="9.53721556720918"><ele>204.0</ele><time>2026-04-18T16:45:15Z</time></trkpt><trkpt lat="44.86022367119644" lon="9.537373783810269"><ele>204.0</ele><time>2026-04-18T16:45:16Z</time></trkpt><trkpt lat="44.86025574768104" lon="9.537533906142018"><ele>204.0</ele><time>2026-04-18T16:45:17Z</time></trkpt><trkpt lat="44.860284035772025" lon="9.537682994120875"><ele>204.0</ele><time>2026-04-18T16:45:18Z</time></trkpt><trkpt lat="44.860320245332126" lon="9.5378152959408"><ele>204.0</ele><time>2026-04-18T16:45:19Z</time></trkpt><trkpt lat="44.86034818002797" lon="9.537951444083957"><ele>204.0</ele><time>2026-04-18T16:45:20Z</time></trkpt><trkpt lat="44.86037403574159" lon="9.538093343643395"><ele>203.79999999999998</ele><time>2026-04-18T16:45:21Z</time></trkpt><trkpt lat="44.860406124455345" lon="9.538241152056854"><ele>203.6</ele><time>2026-04-18T16:45:22Z</time></trkpt><trkpt lat="44.860429992283265" lon="9.538397874036288"><ele>203.4</ele><time>2026-04-18T16:45:23Z</time></trkpt><trkpt lat="44.86045390329973" lon="9.538550262093072"><ele>203.2</ele><time>2026-04-18T16:45:24Z</time></trkpt><trkpt lat="44.86048400910272" lon="9.538688067142898"><ele>203.0</ele><time>2026-04-18T16:45:25Z</time></trkpt><trkpt lat="44.8605075465997" lon="9.538824791427055"><ele>202.4</ele><time>2026-04-18T16:45:26Z</time></trkpt><trkpt lat="44.86055124288816" lon="9.538946028010903"><ele>201.8</ele><time>2026-04-18T16:45:27Z</time></trkpt><trkpt lat="44.8606167698715" lon="9.539054262812527"><ele>201.2</ele><time>2026-04-18T16:45:28Z</time></trkpt><trkpt lat="44.86066074338475" lon="9.539181880342777"><ele>200.6</ele><time>2026-04-18T16:45:29Z</time></trkpt><trkpt lat="44.86069628236384" lon="9.539307696510384"><ele>200.0</ele><time>2026-04-18T16:45:30Z</time></trkpt><trkpt lat="44.86071039706701" lon="9.539433078365436"><ele>200.00000000000003</ele><time>2026-04-18T16:45:31Z</time></trkpt><trkpt lat="44.86067314796019" lon="9.539543734417375"><ele>200.0</ele><time>2026-04-18T16:45:32Z</time></trkpt><trkpt lat="44.860651143754716" lon="9.539657286065523"><ele>200.0</ele><time>2026-04-18T16:45:33Z</time></trkpt><trkpt lat="44.860613355908534" lon="9.539758261079692"><ele>200.0</ele><time>2026-04-18T16:45:34Z</time></trkpt><trkpt lat="44.86059020752416" lon="9.539867156945547"><ele>200.00000000000003</ele><time>2026-04-18T16:45:35Z</time></trkpt><trkpt lat="44.86057898187115" lon="9.53999036924982"><ele>200.0</ele><time>2026-04-18T16:45:36Z</time></trkpt><trkpt lat="44.8605868746596" lon="9.540116229987113"><ele>199.6</ele><time>2026-04-18T16:45:37Z</time></trkpt><trkpt lat="44.8606104148073" lon="9.540244668139769"><ele>199.2</ele><time>2026-04-18T16:45:38Z</time></trkpt><trkpt lat="44.86065382274026" lon="9.540365240066414"><ele>198.8</ele><time>2026-04-18T16:45:39Z</time></trkpt><trkpt lat="44.86070560499177" lon="9.54048324891691"><ele>198.4</ele><time>2026-04-18T16:45:40Z</time></trkpt><trkpt lat="44.8607647901863" lon="9.54060252754668"><ele>198.0</ele><time>2026-04-18T16:45:41Z</time></trkpt><trkpt lat="44.86082929022877" lon="9.540721264783318"><ele>197.0</ele><time>2026-04-18T16:45:42.001Z</time></trkpt><trkpt lat="44.86089549954265" lon="9.540844724690073"><ele>196.0</ele><time>2026-04-18T16:45:43.001Z</time></trkpt><trkpt lat="44.86096356863008" lon="9.540968499894005"><ele>195.0</ele><time>2026-04-18T16:45:44.001Z</time></trkpt><trkpt lat="44.86103705304384" lon="9.541088301985878"><ele>194.0</ele><time>2026-04-18T16:45:45.001Z</time></trkpt><trkpt lat="44.86110646325561" lon="9.54120949015353"><ele>193.0</ele><time>2026-04-18T16:45:46.001Z</time></trkpt><trkpt lat="44.86118262390415" lon="9.541317797651711"><ele>191.8</ele><time>2026-04-18T16:45:47.001Z</time></trkpt><trkpt lat="44.86125500888276" lon="9.541424932000224"><ele>190.60000000000002</ele><time>2026-04-18T16:45:48.001Z</time></trkpt><trkpt lat="44.86132533146353" lon="9.5415285821744"><ele>189.39999999999998</ele><time>2026-04-18T16:45:49.001Z</time></trkpt><trkpt lat="44.86139203758275" lon="9.541631663368102"><ele>188.2</ele><time>2026-04-18T16:45:50.001Z</time></trkpt><trkpt lat="44.86145524925331" lon="9.54173145097771"><ele>187.0</ele><time>2026-04-18T16:45:51.001Z</time></trkpt><trkpt lat="44.86151848273454" lon="9.54182211327484"><ele>187.0</ele><time>2026-04-18T16:45:52.001Z</time></trkpt><trkpt lat="44.861582086416526" lon="9.541913542450995"><ele>187.0</ele><time>2026-04-18T16:45:53.001Z</time></trkpt><trkpt lat="44.86164541059459" lon="9.542007744950975"><ele>187.0</ele><time>2026-04-18T16:45:54.001Z</time></trkpt><trkpt lat="44.861695830641736" lon="9.542117597897334"><ele>187.0</ele><time>2026-04-18T16:45:55.001Z</time></trkpt><trkpt lat="44.8617041325126" lon="9.542253139954228"><ele>187.0</ele><time>2026-04-18T16:45:56.001Z</time></trkpt><trkpt lat="44.86173413684738" lon="9.542380103617328"><ele>186.33333333333334</ele><time>2026-04-18T16:45:57.001Z</time></trkpt><trkpt lat="44.86178199311061" lon="9.542493722955866"><ele>185.66666666666669</ele><time>2026-04-18T16:45:58.001Z</time></trkpt><trkpt lat="44.86182047042832" lon="9.542605205901962"><ele>185.0</ele><time>2026-04-18T16:45:59.001Z</time></trkpt><trkpt lat="44.861860434884086" lon="9.542708735047974"><ele>184.33333333333334</ele><time>2026-04-18T16:46:00.001Z</time></trkpt><trkpt lat="44.86187780119399" lon="9.542817041630494"><ele>183.66666666666666</ele><time>2026-04-18T16:46:01.001Z</time></trkpt><trkpt lat="44.86186975736259" lon="9.542913972934018"><ele>183.0</ele><time>2026-04-18T16:46:02.001Z</time></trkpt><trkpt lat="44.861813246070824" lon="9.543029809433406"><ele>177.0</ele><time>2026-04-18T16:46:04.001Z</time></trkpt><trkpt lat="44.861741542354565" lon="9.54311547348468"><ele>180.0</ele><time>2026-04-18T16:46:06.001Z</time></trkpt><trkpt lat="44.861707928551" lon="9.543197518905583"><ele>180.0</ele><time>2026-04-18T16:46:08.001Z</time></trkpt></trkseg></trk></gpx>